
Distance (Route):
Temperature : -50.6°C
Humidity : 18.5%
Pressure : 251.1hPa| Receiver | Frames | First received | Last received |
|---|---|---|---|
| DL1XH-west | 295 | 2026-08-30 12:04:29 | 2026-08-30 12:58:18 |
| DM0DOS-11 | 122 | 2026-08-30 12:24:59 | 2026-08-30 12:54:23 |
| DJ2DS-15 | 80 | 2026-08-30 11:56:15 | 2026-08-30 13:00:45 |
| BIOWL1-15 | 12 | 2026-08-30 12:50:26 | 2026-08-30 12:53:10 |
| BIOWL9-15 | 2 | 2026-08-30 12:50:48 | 2026-08-30 12:51:50 |
| Receiver | Date | Latitude | Longitude | Direction | Speed | Altitude | Climb | Temperature | Humidity | Pressure | Voltage | Killtimer | Uptime | BKT | XDATA |
|---|---|---|---|---|---|---|---|---|---|---|---|---|---|---|---|
| DJ2DS-15 | 2026-08-30 13:00:45 | 56.94114 | 4.15290 | 43° | 71km/h | 10399m | -18.7m/s | -50.6°C | 18.5% | 251.1hPa | 2.6V | 00:00:00 | 00:00:00 | 00:00:00 | |
| DJ2DS-15 | 2026-08-30 13:00:08 | 56.94074 | 4.15225 | 41° | 77km/h | 10455m | -19.7m/s | -50.8°C | 22.6% | 248.9hPa | 2.6V | 08:21:00 | 02:20:13 | 00:00:00 | |
| DJ2DS-15 | 2026-08-30 12:59:04 | 56.93265 | 4.13833 | 49° | 60km/h | 11697m | -20.6m/s | -47.8°C | 3.6% | 205.7hPa | 2.6V | 00:00:00 | 02:19:09 | 00:00:00 | |
| DJ2DS-15 | 2026-08-30 12:58:56 | 56.93178 | 4.13659 | 49° | 60km/h | 11857m | -21.0m/s | -47.9°C | 1.6% | 200.7hPa | 2.6V | 00:00:00 | 00:00:00 | 00:00:00 | |
| DJ2DS-15 | 2026-08-30 12:58:44 | 56.93067 | 4.13415 | 48° | 53km/h | 12111m | -21.6m/s | -47.2°C | 3.5% | 193.2hPa | 2.6V | 00:00:00 | 02:18:49 | 00:00:00 | |
| DL1XH-west | 2026-08-30 12:58:18 | 56.92821 | 4.12983 | 40° | 49km/h | 12675m | -22.7m/s | -46.7°C | 0.2% | 177.4hPa | 2.5V | 08:24:25 | 02:18:23 | 00:00:00 | |
| DL1XH-west | 2026-08-30 12:58:01 | 56.92619 | 4.12722 | 38° | 66km/h | 13048m | -22.9m/s | -47.7°C | 0.4% | 167.7hPa | 2.6V | 08:24:25 | 02:18:06 | 00:00:00 | |
| DJ2DS-15 | 2026-08-30 12:57:44 | 56.92409 | 4.12429 | 31° | 62km/h | 13436m | -23.7m/s | -47.0°C | 1.2% | 158.2hPa | 2.5V | 00:00:00 | 00:00:00 | 00:00:00 | |
| DL1XH-west | 2026-08-30 12:57:34 | 56.92278 | 4.12270 | 38° | 60km/h | 13669m | -23.9m/s | -47°C | 0.2% | 152.6hPa | 2.5V | 08:25:16 | 02:17:39 | 00:00:00 | |
| DL1XH-west | 2026-08-30 12:57:23 | 56.92141 | 4.12065 | 43° | 69km/h | 13931m | -24.2m/s | -47°C | 0.1% | 146.7hPa | 2.6V | 08:25:16 | 02:17:28 | 00:00:00 | |
| DL1XH-west | 2026-08-30 12:57:12 | 56.92021 | 4.11844 | 49° | 58km/h | 14198m | -24m/s | -47.3°C | 0.1% | 140.8hPa | 2.5V | 08:25:16 | 02:17:17 | 00:00:00 | |
| DL1XH-west | 2026-08-30 12:57:02 | 56.91936 | 4.11665 | 41° | 42km/h | 14444m | -25.2m/s | -47.5°C | 0.1% | 135.7hPa | 2.6V | 08:25:16 | 02:17:07 | 00:00:00 | |
| DL1XH-west | 2026-08-30 12:56:52 | 56.91839 | 4.11582 | 15° | 47km/h | 14691m | -25m/s | -47.6°C | 0.2% | 130.8hPa | 2.5V | 08:25:16 | 02:16:57 | 00:00:00 | |
| DL1XH-west | 2026-08-30 12:56:41 | 56.91700 | 4.11491 | 34° | 58km/h | 14966m | -25.7m/s | -48.8°C | 0.2% | 125.4hPa | 2.6V | 08:26:07 | 02:16:46 | 00:00:00 | |
| DL1XH-west | 2026-08-30 12:56:31 | 56.91612 | 4.11304 | 63° | 46km/h | 15212m | -24.2m/s | -48.1°C | 0.1% | 120.7hPa | 2.6V | 08:26:07 | 02:16:36 | 00:00:00 | |
| DL1XH-west | 2026-08-30 12:56:20 | 56.91559 | 4.11153 | 39° | 37km/h | 15484m | -25.5m/s | -48.6°C | 0.2% | 115.9hPa | 2.6V | 08:26:07 | 02:16:25 | 00:00:00 | |
| DL1XH-west | 2026-08-30 12:56:09 | 56.91454 | 4.11022 | 37° | 49km/h | 15770m | -26.8m/s | -48.1°C | 0.1% | 110.9hPa | 2.6V | 08:26:07 | 02:16:14 | 00:00:00 | |
| DL1XH-west | 2026-08-30 12:55:59 | 56.91356 | 4.10884 | 42° | 53km/h | 16034m | -26.3m/s | -47.7°C | 0% | 106.6hPa | 2.5V | 08:26:07 | 02:16:04 | 00:00:00 | |
| DL1XH-west | 2026-08-30 12:55:49 | 56.91268 | 4.10698 | 59° | 53km/h | 16295m | -26.5m/s | -49.1°C | 0.2% | 102.4hPa | 2.6V | 08:26:58 | 02:15:54 | 00:00:00 | |
| DL1XH-west | 2026-08-30 12:55:38 | 56.91211 | 4.10519 | 44° | 33km/h | 16592m | -29m/s | -49.5°C | 0.3% | 97.8hPa | 2.5V | 08:26:58 | 02:15:43 | 00:00:00 | |
| DL1XH-west | 2026-08-30 12:55:28 | 56.91138 | 4.10428 | 27° | 37km/h | 16871m | -27.6m/s | -48.2°C | 0.1% | 93.8hPa | 2.6V | 08:26:58 | 02:15:33 | 00:00:00 | |
| DL1XH-west | 2026-08-30 12:55:17 | 56.91042 | 4.10311 | 41° | 46km/h | 17180m | -28.1m/s | -48.5°C | 0.1% | 89.5hPa | 2.6V | 08:26:58 | 02:15:22 | 00:00:00 | |
| DL1XH-west | 2026-08-30 12:55:07 | 56.90969 | 4.10163 | 45° | 35km/h | 17468m | -28.2m/s | -48.5°C | 0% | 85.6hPa | 2.6V | 08:26:58 | 02:15:12 | 00:00:00 | |
| DL1XH-west | 2026-08-30 12:54:56 | 56.90907 | 4.10046 | 52° | 33km/h | 17795m | -30.1m/s | -49.5°C | 0.2% | 81.4hPa | 2.6V | 08:27:49 | 02:15:01 | 00:00:00 | |
| DL1XH-west | 2026-08-30 12:54:45 | 56.90845 | 4.09947 | 34° | 35km/h | 18126m | -30.7m/s | -49.8°C | 0.3% | 77.4hPa | 2.6V | 08:27:49 | 02:14:50 | 00:00:00 | |
| DL1XH-west | 2026-08-30 12:54:34 | 56.90777 | 4.09836 | 33° | 35km/h | 18470m | -31.9m/s | -49.4°C | 0.3% | 73.5hPa | 2.6V | 08:27:49 | 02:14:39 | 00:00:00 | |
| DL1XH-west | 2026-08-30 12:54:24 | 56.90699 | 4.09733 | 47° | 38km/h | 18780m | -32m/s | -49.5°C | 0.3% | 70hPa | 2.6V | 08:27:49 | 02:14:29 | 00:00:00 | |
| DJ2DS-15 | 2026-08-30 12:54:24 | 56.90699 | 4.09733 | 47° | 29km/h | 18780m | -32.0m/s | -49.4°C | 3.5% | 70.0hPa | 2.5V | 00:00:00 | 02:14:29 | 00:00:00 | |
| DM0DOS-11 | 2026-08-30 12:54:23 | 56.90673 | 4.09674 | 51° | 29km/h | 18938m | -30.6m/s | -48.6°C | 3.2% | 68.3hPa | 2.5V | 08:30:00 | 02:14:24 | 00:00:00 | |
| DL1XH-west | 2026-08-30 12:54:13 | 56.90643 | 4.09624 | 34° | 27km/h | 19122m | -31.8m/s | -48.6°C | 0.1% | 66.5hPa | 2.5V | 08:27:49 | 02:14:18 | 00:00:00 | |
| DM0DOS-11 | 2026-08-30 12:54:05 | 56.90596 | 4.09566 | 43° | 22km/h | 19403m | -31m/s | -49°C | 3.2% | 63.6hPa | 2.6V | 08:30:00 | 02:14:09 | 00:00:00 | |
| DL1XH-west | 2026-08-30 12:54:02 | 56.90588 | 4.09552 | 49° | 20km/h | 19465m | -32.2m/s | -49.1°C | 0.2% | 63.1hPa | 2.5V | 08:28:40 | 02:14:07 | 00:00:00 | |
| DM0DOS-11 | 2026-08-30 12:53:58 | 56.90556 | 4.09498 | 28° | 26km/h | 19730m | -33.2m/s | -49.5°C | 3.3% | 60.5hPa | 2.6V | 08:30:00 | 02:13:59 | 00:00:00 | |
| DL1XH-west | 2026-08-30 12:53:51 | 56.90537 | 4.09483 | 19° | 29km/h | 19828m | -32.3m/s | -49.8°C | 0.2% | 59.6hPa | 2.5V | 08:28:40 | 02:13:56 | 00:00:00 | |
| DL1XH-west | 2026-08-30 12:53:40 | 56.90452 | 4.09420 | 36° | 33km/h | 20203m | -35.3m/s | -50.4°C | 0.3% | 56.3hPa | 2.6V | 08:28:40 | 02:13:45 | 00:00:00 | |
| DM0DOS-11 | 2026-08-30 12:53:31 | 56.90384 | 4.09336 | 28° | 29km/h | 20614m | -33.1m/s | -51.2°C | 3.8% | 52.9hPa | 2.6V | 08:30:00 | 02:13:33 | 00:00:00 | |
| DL1XH-west | 2026-08-30 12:53:30 | 56.90396 | 4.09349 | 26° | 29km/h | 20547m | -33.9m/s | -51.3°C | 0.5% | 53.4hPa | 2.6V | 08:28:40 | 02:13:35 | 00:00:00 | |
| DL1XH-west | 2026-08-30 12:53:19 | 56.90345 | 4.09253 | 63° | 22km/h | 20921m | -35.6m/s | -50.2°C | 0.3% | 50.4hPa | 2.5V | 08:29:31 | 02:13:24 | 00:00:00 | |
| BIOWL1-15 | 2026-08-30 12:53:10 | 56.90323 | 4.09186 | 14° | 9km/h | 21385m | -36.3m/s | 0°C | 0% | 0hPa | 2.5V | 08:29:31 | 02:13:11 | 00:00:00 | |
| DL1XH-west | 2026-08-30 12:53:09 | 56.90329 | 4.09190 | 33° | 9km/h | 21276m | -37.1m/s | -50.4°C | 0.4% | 47.7hPa | 2.6V | 08:29:31 | 02:13:14 | 00:00:00 | |
| BIOWL1-15 | 2026-08-30 12:53:03 | 56.90301 | 4.09191 | 351° | 20km/h | 21645m | -38.9m/s | 0°C | 0% | 0hPa | 2.5V | 08:29:31 | 02:13:04 | 00:00:00 | |
| DL1XH-west | 2026-08-30 12:52:58 | 56.90296 | 4.09192 | 352° | 18km/h | 21683m | -38.7m/s | -50.6°C | 0.3% | 44.9hPa | 2.6V | 08:29:31 | 02:13:03 | 00:00:00 | |
| DL1XH-west | 2026-08-30 12:52:47 | 56.90258 | 4.09200 | 341° | 13km/h | 22101m | -39.5m/s | -51°C | 0.5% | 42hPa | 2.5V | 08:29:31 | 02:12:52 | 00:00:00 | |
| DM0DOS-11 | 2026-08-30 12:52:44 | 56.90246 | 4.09204 | 5° | 15km/h | 22261m | -41.1m/s | -51.7°C | 4% | 41hPa | 2.6V | 08:30:00 | 02:12:48 | 00:00:00 | |
| DJ2DS-15 | 2026-08-30 12:52:44 | 56.90249 | 4.09203 | 354° | 15km/h | 22221m | -40.1m/s | -51.4°C | 3.9% | 41.2hPa | 2.6V | 00:00:00 | 02:12:49 | 00:00:00 | |
| DM0DOS-11 | 2026-08-30 12:52:38 | 56.90205 | 4.09187 | 1° | 16km/h | 22728m | -51.9m/s | -51.4°C | 3.9% | 38.2hPa | 2.6V | 08:30:00 | 02:12:38 | 00:00:00 | |
| BIOWL1-15 | 2026-08-30 12:52:37 | 56.90209 | 4.09187 | 7° | 18km/h | 22678m | -51.3m/s | 0°C | 0% | 0hPa | 2.5V | 08:29:31 | 02:12:39 | 00:00:00 | |
| DL1XH-west | 2026-08-30 12:52:36 | 56.90217 | 4.09190 | 18° | 18km/h | 22580m | -47.4m/s | -51.5°C | 0.6% | 39hPa | 2.5V | 08:29:31 | 02:12:41 | 00:00:00 | |
| DL1XH-west | 2026-08-30 12:52:25 | 56.90178 | 4.09190 | 14° | 11km/h | 23144m | -51.5m/s | -50.8°C | 0.5% | 35.8hPa | 2.6V | 18:12:15 | 02:12:30 | 00:00:00 | |
| BIOWL1-15 | 2026-08-30 12:52:24 | 56.90170 | 4.09187 | 1° | 7km/h | 23295m | -50.1m/s | 0°C | 0% | 0hPa | 2.5V | 18:12:15 | 02:12:27 | 00:00:00 | |
| DM0DOS-11 | 2026-08-30 12:52:21 | 56.90159 | 4.09179 | 32° | 13km/h | 23541m | -48.6m/s | -49.7°C | 3.4% | 33.6hPa | 2.6V | 08:30:00 | 02:12:22 | 00:00:00 | |
| DL1XH-west | 2026-08-30 12:52:14 | 56.90151 | 4.09169 | 40° | 13km/h | 23689m | -51.8m/s | -50.2°C | 0.4% | 32.9hPa | 2.6V | 18:12:15 | 02:12:19 | 00:00:00 | |
| DM0DOS-11 | 2026-08-30 12:52:08 | 56.90140 | 4.09151 | 319° | 7km/h | 24307m | -60.1m/s | -50.6°C | 3.7% | 29.9hPa | 2.6V | 08:30:00 | 02:12:08 | 00:00:00 | |
| DL1XH-west | 2026-08-30 12:52:03 | 56.90140 | 4.09151 | 319° | 7km/h | 24307m | -60.1m/s | -50.7°C | 0.5% | 29.9hPa | 2.6V | 18:12:15 | 02:12:08 | 00:00:00 | |
| DL1XH-west | 2026-08-30 12:51:52 | 56.90106 | 4.09176 | 1° | 16km/h | 24955m | -57.6m/s | -50.5°C | 0.5% | 27hPa | 2.5V | 18:12:15 | 02:11:57 | 00:00:00 | |
| BIOWL9-15 | 2026-08-30 12:51:50 | 56.90083 | 4.09159 | 31° | 11km/h | 25351m | -54.9m/s | -49.4°C | -1.0% | 25.4hPa | 2.5V | 00:00:00 | 00:00:00 | 00:00:00 | |
| DM0DOS-11 | 2026-08-30 12:51:47 | 56.90080 | 4.09156 | 23° | 15km/h | 25404m | -53.4m/s | -49.6°C | 3.4% | 25.2hPa | 2.5V | 08:30:00 | 02:11:49 | 00:00:00 | |
| BIOWL1-15 | 2026-08-30 12:51:43 | 56.90066 | 4.09142 | 40° | 16km/h | 25605m | -48.2m/s | 0°C | 0% | 0hPa | 2.6V | 18:12:15 | 02:11:45 | 00:00:00 | |
| DL1XH-west | 2026-08-30 12:51:41 | 56.90070 | 4.09146 | 30° | 16km/h | 25557m | -47.7m/s | -49.8°C | 0.3% | 24.6hPa | 2.6V | 18:12:15 | 02:11:46 | 00:00:00 | |
| DL1XH-west | 2026-08-30 12:51:31 | 56.90037 | 4.09077 | 70° | 16km/h | 25816m | 5.8m/s | -49.5°C | 0.3% | 23.5hPa | 2.6V | 18:12:15 | 02:11:34 | 00:00:00 | |
| BIOWL1-15 | 2026-08-30 12:51:30 | 56.90036 | 4.09064 | 82° | 13km/h | 25806m | 4.6m/s | 0°C | 0% | 0hPa | 2.5V | 18:12:15 | 02:11:32 | 00:00:00 | |
| BIOWL1-15 | 2026-08-30 12:51:21 | 56.90004 | 4.09026 | 30° | 9km/h | 25745m | 4m/s | 0°C | 0% | 0hPa | 2.6V | 18:12:15 | 02:11:20 | 00:00:00 | |
| DL1XH-west | 2026-08-30 12:51:20 | 56.90021 | 4.09032 | 3° | 15km/h | 25769m | 5.5m/s | -49.5°C | 0.3% | 23.7hPa | 2.5V | 18:12:15 | 02:11:25 | 00:00:00 | |
| DL1XH-west | 2026-08-30 12:51:09 | 56.90001 | 4.08996 | 72° | 7km/h | 25715m | 4.1m/s | -49.7°C | 0.2% | 23.9hPa | 2.6V | 18:12:15 | 02:11:14 | 00:00:00 | |
| DM0DOS-11 | 2026-08-30 12:51:07 | 56.89985 | 4.08991 | 350° | 13km/h | 25685m | 4.8m/s | -49.9°C | 3.4% | 24hPa | 2.6V | 08:30:00 | 02:11:08 | 00:00:00 | |
| BIOWL1-15 | 2026-08-30 12:51:05 | 56.89992 | 4.08990 | 4° | 15km/h | 25695m | 4.6m/s | 0°C | 0% | 0hPa | 2.5V | 18:12:15 | 02:11:10 | 00:00:00 | |
| DL1XH-west | 2026-08-30 12:50:59 | 56.89974 | 4.08980 | 69° | 16km/h | 25665m | 4.3m/s | -50.2°C | 0.4% | 24.1hPa | 2.5V | 18:12:15 | 02:11:04 | 00:00:00 | |
| BIOWL1-15 | 2026-08-30 12:50:59 | 56.89966 | 4.08950 | 25° | 15km/h | 25634m | 4.7m/s | 0°C | 0% | 0hPa | 2.5V | 18:12:15 | 02:10:58 | 00:00:00 | |
| DM0DOS-11 | 2026-08-30 12:50:57 | 56.89962 | 4.08948 | 8° | 18km/h | 25629m | 4.6m/s | -50.2°C | 3.6% | 24.2hPa | 2.6V | 08:30:00 | 02:10:57 | 00:00:00 | |
| DL1XH-west | 2026-08-30 12:50:49 | 56.89945 | 4.08950 | 352° | 27km/h | 25613m | 5.3m/s | -50.4°C | 0.4% | 24.3hPa | 2.6V | 18:12:15 | 02:10:54 | 00:00:00 | |
| BIOWL9-15 | 2026-08-30 12:50:48 | 56.89931 | 4.08950 | 7° | 27km/h | 25602m | 4.5m/s | -50.4°C | -1.0% | 24.3hPa | 2.6V | 00:00:00 | 00:00:00 | 00:00:00 | |
| DM0DOS-11 | 2026-08-30 12:50:47 | 56.89911 | 4.08943 | 7° | 11km/h | 25582m | 4.8m/s | -50.3°C | 3.7% | 24.4hPa | 2.6V | 08:30:00 | 02:10:48 | 00:00:00 | |
| BIOWL1-15 | 2026-08-30 12:50:42 | 56.89904 | 4.08941 | 13° | 11km/h | 25567m | 4.7m/s | 0°C | 0% | 0hPa | 2.5V | 18:12:15 | 02:10:45 | 00:00:00 | |
| DL1XH-west | 2026-08-30 12:50:39 | 56.89901 | 4.08940 | 7° | 15km/h | 25562m | 4.4m/s | -50.2°C | 0.4% | 24.5hPa | 2.5V | 18:12:15 | 02:10:44 | 00:00:00 | |
| BIOWL1-15 | 2026-08-30 12:50:32 | 56.89869 | 4.08941 | 8° | 18km/h | 25526m | 5.1m/s | 0°C | 0% | 0hPa | 2.5V | 18:12:15 | 02:10:37 | 00:00:00 | |
| DL1XH-west | 2026-08-30 12:50:28 | 56.89855 | 4.08941 | 360° | 13km/h | 25506m | 6m/s | -50.3°C | 0.4% | 24.7hPa | 2.5V | 18:12:15 | 02:10:33 | 00:00:00 | |
| BIOWL1-15 | 2026-08-30 12:50:26 | 56.89833 | 4.08945 | 28° | 9km/h | 25464m | 4.7m/s | 0°C | 0% | 0hPa | 2.6V | 18:12:15 | 02:10:25 | 00:00:00 | |
| DL1XH-west | 2026-08-30 12:50:18 | 56.89830 | 4.08943 | 18° | 7km/h | 25453m | 5.1m/s | -50.1°C | 0.4% | 24.9hPa | 2.6V | 18:12:15 | 02:10:23 | 00:00:00 | |
| DL1XH-west | 2026-08-30 12:50:08 | 56.89804 | 4.08931 | 51° | 7km/h | 25401m | 4.7m/s | -50.1°C | 0.4% | 25.1hPa | 2.5V | 18:12:15 | 02:10:13 | 00:00:00 | |
| DM0DOS-11 | 2026-08-30 12:50:07 | 56.89800 | 4.08919 | 52° | 7km/h | 25375m | 5.7m/s | -50°C | 3.6% | 25.2hPa | 2.5V | 08:30:00 | 02:10:08 | 00:00:00 | |
| DL1XH-west | 2026-08-30 12:49:57 | 56.89792 | 4.08898 | 66° | 9km/h | 25343m | 5.9m/s | -50°C | 0.4% | 25.3hPa | 2.5V | 18:12:15 | 02:10:02 | 00:00:00 | |
| DM0DOS-11 | 2026-08-30 12:49:57 | 56.89788 | 4.08882 | 34° | 5km/h | 25322m | 5.7m/s | -50°C | 3.5% | 25.4hPa | 2.6V | 08:30:00 | 02:09:58 | 00:00:00 | |
| DM0DOS-11 | 2026-08-30 12:49:47 | 56.89766 | 4.08874 | 32° | 15km/h | 25269m | 4.4m/s | -49.9°C | 3.5% | 25.6hPa | 2.5V | 08:30:00 | 02:09:48 | 00:00:00 | |
| DL1XH-west | 2026-08-30 12:49:46 | 56.89775 | 4.08879 | 1° | 9km/h | 25284m | 5m/s | -49.9°C | 0.3% | 25.6hPa | 2.6V | 18:12:15 | 02:09:51 | 00:00:00 | |
| DJ2DS-15 | 2026-08-30 12:49:44 | 56.89769 | 4.08877 | 25° | 16km/h | 25274m | 6.0m/s | -49.9°C | 3.5% | 25.6hPa | 2.5V | 00:00:00 | 02:09:49 | 00:00:00 | |
| DM0DOS-11 | 2026-08-30 12:49:37 | 56.89737 | 4.08831 | 43° | 15km/h | 25218m | 5.3m/s | -50°C | 3.5% | 25.8hPa | 2.5V | 08:30:00 | 02:09:38 | 00:00:00 | |
| DL1XH-west | 2026-08-30 12:49:35 | 56.89742 | 4.08842 | 51° | 18km/h | 25229m | 4.4m/s | -49.9°C | 0.3% | 25.8hPa | 2.6V | 18:12:15 | 02:09:40 | 00:00:00 | |
| DL1XH-west | 2026-08-30 12:49:25 | 56.89710 | 4.08783 | 44° | 18km/h | 25176m | 4.8m/s | -50.2°C | 0.3% | 26hPa | 2.5V | 18:12:15 | 02:09:30 | 00:00:00 | |
| DJ2DS-15 | 2026-08-30 12:49:24 | 56.89706 | 4.08777 | 43° | 24km/h | 25171m | 5.8m/s | -50.2°C | 3.4% | 26.0hPa | 2.5V | 00:00:00 | 02:09:29 | 00:00:00 | |
| DM0DOS-11 | 2026-08-30 12:49:22 | 56.89685 | 4.08754 | 20° | 18km/h | 25144m | 5.1m/s | -50.8°C | 3.6% | 26.1hPa | 2.5V | 08:30:00 | 02:09:24 | 00:00:00 | |
| DL1XH-west | 2026-08-30 12:49:15 | 56.89665 | 4.08737 | 26° | 22km/h | 25123m | 6.2m/s | -51.1°C | 0.4% | 26.2hPa | 2.6V | 18:12:15 | 02:09:20 | 00:00:00 | |
| DM0DOS-11 | 2026-08-30 12:49:12 | 56.89631 | 4.08713 | 11° | 26km/h | 25092m | 6.5m/s | -51°C | 3.7% | 26.3hPa | 2.6V | 08:30:00 | 02:09:14 | 00:00:00 | |
| DL1XH-west | 2026-08-30 12:49:05 | 56.89604 | 4.08715 | 356° | 31km/h | 25071m | 5.1m/s | -50.9°C | 0.4% | 26.4hPa | 2.6V | 18:12:15 | 02:09:10 | 00:00:00 | |
| DL1XH-west | 2026-08-30 12:48:54 | 56.89536 | 4.08742 | 340° | 26km/h | 25013m | 6m/s | -51.2°C | 0.5% | 26.6hPa | 2.5V | 18:12:15 | 02:08:59 | 00:00:00 | |
| DJ2DS-15 | 2026-08-30 12:48:44 | 56.89472 | 4.08790 | 321° | 26km/h | 24962m | 5.5m/s | -51.2°C | 3.7% | 26.8hPa | 2.6V | 00:00:00 | 02:08:49 | 00:00:00 | |
| DJ2DS-15 | 2026-08-30 12:48:43 | 56.89468 | 4.08797 | 313° | 22km/h | 24957m | 4.5m/s | -51.1°C | 0.9% | 26.9hPa | 2.6V | 00:00:00 | 00:00:00 | 00:00:00 | |
| DL1XH-west | 2026-08-30 12:48:43 | 56.89468 | 4.08797 | 314° | 24km/h | 24956m | 4.5m/s | -51.1°C | 0.4% | 26.9hPa | 2.5V | 18:12:15 | 02:08:48 | 00:00:00 | |
| DM0DOS-11 | 2026-08-30 12:48:42 | 56.89447 | 4.08832 | 318° | 31km/h | 24935m | 5.8m/s | -51.4°C | 3.7% | 27hPa | 2.6V | 08:30:00 | 02:08:44 | 00:00:00 | |
| DL1XH-west | 2026-08-30 12:48:33 | 56.89413 | 4.08865 | 325° | 18km/h | 24905m | 5.3m/s | -51.5°C | 0.5% | 27.1hPa | 2.6V | 18:12:15 | 02:08:38 | 00:00:00 | |
| DL1XH-west | 2026-08-30 12:48:22 | 56.89372 | 4.08963 | 318° | 20km/h | 24851m | 4.9m/s | -51.6°C | 0.5% | 27.3hPa | 2.5V | 18:12:15 | 02:08:27 | 00:00:00 | |
| DM0DOS-11 | 2026-08-30 12:48:15 | 56.89344 | 4.09041 | 312° | 24km/h | 24787m | 4.7m/s | -51.3°C | 3.8% | 27.6hPa | 2.5V | 08:30:00 | 02:08:15 | 00:00:00 | |
| DL1XH-west | 2026-08-30 12:48:11 | 56.89348 | 4.09033 | 310° | 26km/h | 24792m | 5.4m/s | -51.3°C | 0.6% | 27.6hPa | 2.5V | 18:12:15 | 02:08:16 | 00:00:00 | |
| DL1XH-west | 2026-08-30 12:48:00 | 56.89328 | 4.09092 | 319° | 15km/h | 24734m | 5.7m/s | -51.1°C | 0.5% | 27.8hPa | 2.5V | 18:12:15 | 02:08:05 | 00:00:00 | |
| DM0DOS-11 | 2026-08-30 12:48:00 | 56.89313 | 4.09116 | 313° | 24km/h | 24713m | 3.6m/s | -51°C | 3.7% | 27.9hPa | 2.6V | 08:30:00 | 02:08:01 | 00:00:00 | |
| DM0DOS-11 | 2026-08-30 12:47:50 | 56.89301 | 4.09146 | 333° | 9km/h | 24664m | 4.6m/s | -51.1°C | 3.7% | 28.1hPa | 2.5V | 08:30:00 | 02:07:51 | 00:00:00 | |
| DL1XH-west | 2026-08-30 12:47:49 | 56.89303 | 4.09140 | 247° | 7km/h | 24679m | 3.8m/s | -51.1°C | 0.4% | 28.1hPa | 2.6V | 18:12:15 | 02:07:54 | 00:00:00 | |
| DJ2DS-15 | 2026-08-30 12:47:44 | 56.89296 | 4.09152 | 324° | 13km/h | 24655m | 4.9m/s | -51.1°C | 3.8% | 28.1hPa | 2.5V | 00:00:00 | 02:07:49 | 08:30:00 | |
| DM0DOS-11 | 2026-08-30 12:47:40 | 56.89272 | 4.09181 | 325° | 5km/h | 24608m | 5m/s | -51.2°C | 3.8% | 28.4hPa | 2.5V | 08:30:00 | 02:07:40 | 00:00:00 | |
| DL1XH-west | 2026-08-30 12:47:39 | 56.89278 | 4.09169 | 333° | 13km/h | 24630m | 5m/s | -51.2°C | 0.5% | 28.3hPa | 2.5V | 18:12:15 | 02:07:44 | 00:00:00 | |
| DL1XH-west | 2026-08-30 12:47:28 | 56.89258 | 4.09193 | 340° | 16km/h | 24572m | 4m/s | -51.4°C | 0.6% | 28.5hPa | 2.5V | 18:12:15 | 02:07:33 | 00:00:00 | |
| DL1XH-west | 2026-08-30 12:47:18 | 56.89256 | 4.09210 | 146° | 5km/h | 24517m | 4.8m/s | -51.4°C | 0.5% | 28.8hPa | 2.5V | 18:12:15 | 02:07:22 | 00:00:00 | |
| DL1XH-west | 2026-08-30 12:47:06 | 56.89252 | 4.09245 | 234° | 4km/h | 24462m | 4.3m/s | -51.5°C | 0.5% | 29hPa | 2.6V | 18:12:15 | 02:07:11 | 00:00:00 | |
| DM0DOS-11 | 2026-08-30 12:47:05 | 56.89259 | 4.09242 | 189° | 11km/h | 24437m | 4.8m/s | -51.5°C | 3.8% | 29.1hPa | 2.5V | 08:30:00 | 02:07:06 | 00:00:00 | |
| DL1XH-west | 2026-08-30 12:46:56 | 56.89271 | 4.09253 | 256° | 7km/h | 24406m | 4.3m/s | -51.4°C | 0.5% | 29.3hPa | 2.6V | 18:12:15 | 02:07:00 | 00:00:00 | |
| DM0DOS-11 | 2026-08-30 12:46:55 | 56.89269 | 4.09261 | 303° | 5km/h | 24387m | 4.6m/s | -51.5°C | 3.7% | 29.4hPa | 2.5V | 08:30:00 | 02:06:56 | 00:00:00 | |
| DJ2DS-15 | 2026-08-30 12:46:55 | 56.89271 | 4.09253 | 256° | 5km/h | 24406m | 4.3m/s | -51.4°C | 1.0% | 29.3hPa | 2.6V | 00:00:00 | 00:00:00 | 00:00:00 | |
| DM0DOS-11 | 2026-08-30 12:46:45 | 56.89281 | 4.09289 | 150° | 5km/h | 24336m | 5.1m/s | -51.4°C | 3.8% | 29.6hPa | 2.6V | 08:30:00 | 02:06:46 | 00:00:00 | |
| DL1XH-west | 2026-08-30 12:46:45 | 56.89276 | 4.09286 | 208° | 9km/h | 24351m | 5.7m/s | -51.5°C | 0.6% | 29.6hPa | 2.5V | 18:12:15 | 02:06:49 | 00:00:00 | |
| DJ2DS-15 | 2026-08-30 12:46:44 | 56.89276 | 4.09286 | 208° | 7km/h | 24351m | 5.7m/s | -51.4°C | 3.9% | 29.5hPa | 2.5V | 00:00:00 | 02:06:49 | 00:00:00 | |
| DM0DOS-11 | 2026-08-30 12:46:35 | 56.89290 | 4.09311 | 220° | 15km/h | 24285m | 4.3m/s | -51.5°C | 3.7% | 29.8hPa | 2.6V | 08:30:00 | 02:06:36 | 00:00:00 | |
| DL1XH-west | 2026-08-30 12:46:34 | 56.89284 | 4.09297 | 243° | 9km/h | 24300m | 4.3m/s | -51.6°C | 0.5% | 29.8hPa | 2.5V | 18:12:15 | 02:06:39 | 00:00:00 | |
| DM0DOS-11 | 2026-08-30 12:46:25 | 56.89305 | 4.09303 | 189° | 5km/h | 24234m | 5.5m/s | -51.9°C | 3.9% | 30.1hPa | 2.5V | 08:30:00 | 02:06:26 | 00:00:00 | |
| DL1XH-west | 2026-08-30 12:46:23 | 56.89303 | 4.09305 | 115° | 5km/h | 24243m | 4.6m/s | -51.9°C | 0.6% | 30hPa | 2.6V | 18:12:15 | 02:06:28 | 00:00:00 | |
| DJ2DS-15 | 2026-08-30 12:46:22 | 56.89304 | 4.09303 | 146° | 7km/h | 24239m | 4.7m/s | -51.8°C | 3.9% | 30.0hPa | 2.6V | 00:00:00 | 02:06:27 | 00:00:00 | |
| DM0DOS-11 | 2026-08-30 12:46:15 | 56.89330 | 4.09294 | 132° | 9km/h | 24183m | 5.1m/s | -51.8°C | 3.9% | 30.3hPa | 2.6V | 08:30:00 | 02:06:16 | 00:00:00 | |
| DL1XH-west | 2026-08-30 12:46:13 | 56.89328 | 4.09297 | 142° | 11km/h | 24188m | 4.8m/s | -51.9°C | 0.6% | 30.3hPa | 2.6V | 18:12:15 | 02:06:17 | 00:00:00 | |
| DM0DOS-11 | 2026-08-30 12:46:02 | 56.89333 | 4.09282 | 123° | 7km/h | 24131m | 5.6m/s | -51.7°C | 3.9% | 30.6hPa | 2.6V | 08:30:00 | 02:06:06 | 00:00:00 | |
| DL1XH-west | 2026-08-30 12:46:01 | 56.89333 | 4.09282 | 123° | 7km/h | 24131m | 5.6m/s | -51.7°C | 0.6% | 30.6hPa | 2.6V | 18:12:15 | 02:06:06 | 00:00:00 | |
| DM0DOS-11 | 2026-08-30 12:45:55 | 56.89332 | 4.09246 | 114° | 5km/h | 24082m | 5.2m/s | -51.7°C | 3.9% | 30.8hPa | 2.5V | 08:30:00 | 02:05:56 | 00:00:00 | |
| DL1XH-west | 2026-08-30 12:45:50 | 56.89333 | 4.09244 | 138° | 4km/h | 24077m | 3.8m/s | -51.7°C | 0.6% | 30.8hPa | 2.5V | 18:12:15 | 02:05:55 | 00:00:00 | |
| DM0DOS-11 | 2026-08-30 12:45:43 | 56.89333 | 4.09197 | 72° | 18km/h | 24032m | 4.3m/s | -51.4°C | 3.9% | 31hPa | 2.6V | 08:30:00 | 02:05:46 | 00:00:00 | |
| DL1XH-west | 2026-08-30 12:45:40 | 56.89331 | 4.09190 | 70° | 16km/h | 24028m | 4.6m/s | -51.5°C | 0.6% | 31.1hPa | 2.5V | 18:12:15 | 02:05:45 | 00:00:00 | |
| DM0DOS-11 | 2026-08-30 12:45:35 | 56.89323 | 4.09136 | 70° | 16km/h | 23978m | 5.4m/s | -51.2°C | 3.8% | 31.3hPa | 2.6V | 08:30:00 | 02:05:35 | 00:00:00 | |
| DL1XH-west | 2026-08-30 12:45:30 | 56.89321 | 4.09129 | 66° | 18km/h | 23972m | 5.2m/s | -51.1°C | 0.5% | 31.4hPa | 2.6V | 18:12:15 | 02:05:34 | 00:00:00 | |
| DM0DOS-11 | 2026-08-30 12:45:26 | 56.89305 | 4.09070 | 66° | 9km/h | 23927m | 4.4m/s | -51.1°C | 3.8% | 31.5hPa | 2.5V | 08:30:00 | 02:05:25 | 00:00:00 | |
| DL1XH-west | 2026-08-30 12:45:20 | 56.89299 | 4.09054 | 55° | 22km/h | 23912m | 4.7m/s | -51°C | 0.6% | 31.6hPa | 2.6V | 18:12:15 | 02:05:22 | 00:00:00 | |
| DM0DOS-11 | 2026-08-30 12:45:12 | 56.89273 | 4.09000 | 52° | 20km/h | 23876m | 4.4m/s | -51.1°C | 3.7% | 31.8hPa | 2.6V | 08:30:00 | 02:05:15 | 00:00:00 | |
| DL1XH-west | 2026-08-30 12:45:09 | 56.89268 | 4.08988 | 40° | 15km/h | 23866m | 3.8m/s | -51.1°C | 0.5% | 31.9hPa | 2.5V | 18:12:15 | 02:05:13 | 00:00:00 | |
| DJ2DS-15 | 2026-08-30 12:45:07 | 56.89262 | 4.08980 | 41° | 15km/h | 23857m | 5.4m/s | -51.1°C | 1.0% | 31.9hPa | 2.6V | 00:00:00 | 00:00:00 | 00:00:00 | |
| DM0DOS-11 | 2026-08-30 12:45:05 | 56.89232 | 4.08948 | 17° | 24km/h | 23828m | 4.5m/s | -51°C | 3.8% | 32hPa | 2.6V | 08:30:00 | 02:05:05 | 00:00:00 | |
| DL1XH-west | 2026-08-30 12:44:57 | 56.89217 | 4.08936 | 34° | 18km/h | 23812m | 3.9m/s | -50.9°C | 0.5% | 32.1hPa | 2.5V | 18:12:15 | 02:05:02 | 00:00:00 | |
| DM0DOS-11 | 2026-08-30 12:44:54 | 56.89181 | 4.08916 | 5° | 22km/h | 23773m | 4.6m/s | -50.9°C | 3.7% | 32.3hPa | 2.6V | 08:30:00 | 02:04:54 | 00:00:00 | |
| DL1XH-west | 2026-08-30 12:44:47 | 56.89167 | 4.08912 | 23° | 18km/h | 23759m | 5.6m/s | -51°C | 0.6% | 32.4hPa | 2.5V | 18:12:15 | 02:04:51 | 00:00:00 | |
| DM0DOS-11 | 2026-08-30 12:44:44 | 56.89142 | 4.08886 | 24° | 16km/h | 23724m | 4.8m/s | -50.9°C | 3.8% | 32.6hPa | 2.5V | 08:30:00 | 02:04:44 | 00:00:00 | |
| DL1XH-west | 2026-08-30 12:44:35 | 56.89127 | 4.08878 | 27° | 13km/h | 23704m | 5.6m/s | -51°C | 0.5% | 32.7hPa | 2.6V | 18:12:15 | 02:04:40 | 00:00:00 | |
| DL1XH-west | 2026-08-30 12:44:25 | 56.89105 | 4.08832 | 7° | 13km/h | 23649m | 4.6m/s | -50.8°C | 0.5% | 32.9hPa | 2.6V | 18:12:15 | 02:04:29 | 00:00:00 | |
| DL1XH-west | 2026-08-30 12:44:14 | 56.89085 | 4.08799 | 17° | 9km/h | 23594m | 4.2m/s | -50.4°C | 0.4% | 33.2hPa | 2.6V | 18:12:15 | 02:04:18 | 00:00:00 | |
| DM0DOS-11 | 2026-08-30 12:44:14 | 56.89075 | 4.08792 | 20° | 11km/h | 23574m | 5.5m/s | -50.2°C | 3.6% | 33.3hPa | 2.5V | 08:30:00 | 02:04:14 | 00:00:00 | |
| DM0DOS-11 | 2026-08-30 12:44:04 | 56.89056 | 4.08775 | 18° | 11km/h | 23524m | 4.4m/s | -50°C | 3.5% | 33.6hPa | 2.6V | 08:30:00 | 02:04:04 | 00:00:00 | |
| DL1XH-west | 2026-08-30 12:44:04 | 56.89064 | 4.08781 | 33° | 7km/h | 23545m | 5.5m/s | -50°C | 0.5% | 33.5hPa | 2.5V | 18:12:15 | 02:04:08 | 00:00:00 | |
| DJ2DS-15 | 2026-08-30 12:44:02 | 56.89063 | 4.08780 | 20° | 7km/h | 23540m | 4.5m/s | -49.9°C | 3.6% | 33.5hPa | 2.6V | 00:00:00 | 02:04:07 | 00:00:00 | |
| DJ2DS-15 | 2026-08-30 12:43:55 | 56.89043 | 4.08774 | 16° | 9km/h | 23499m | 4.1m/s | -50.0°C | 0.9% | 33.7hPa | 2.6V | 00:00:00 | 00:00:00 | 00:00:00 | |
| DM0DOS-11 | 2026-08-30 12:43:54 | 56.89037 | 4.08773 | 21° | 5km/h | 23474m | 5.2m/s | -50°C | 3.5% | 33.9hPa | 2.6V | 08:30:00 | 02:03:54 | 00:00:00 | |
| DL1XH-west | 2026-08-30 12:43:52 | 56.89039 | 4.08773 | 8° | 4km/h | 23489m | 5.4m/s | -50°C | 0.4% | 33.8hPa | 2.5V | 18:12:15 | 02:03:57 | 00:00:00 | |
| DM0DOS-11 | 2026-08-30 12:43:44 | 56.89017 | 4.08781 | 329° | 11km/h | 23424m | 4.5m/s | -50°C | 3.5% | 34.1hPa | 2.5V | 08:30:00 | 02:03:44 | 00:00:00 | |
| DL1XH-west | 2026-08-30 12:43:41 | 56.89022 | 4.08777 | 345° | 11km/h | 23434m | 5.9m/s | -49.9°C | 0.4% | 34.1hPa | 2.5V | 18:12:15 | 02:03:46 | 00:00:00 | |
| DM0DOS-11 | 2026-08-30 12:43:34 | 56.89001 | 4.08817 | 314° | 13km/h | 23374m | 5m/s | -50.2°C | 3.5% | 34.4hPa | 2.6V | 08:30:00 | 02:03:34 | 00:00:00 | |
| DL1XH-west | 2026-08-30 12:43:31 | 56.89006 | 4.08809 | 319° | 11km/h | 23384m | 4.6m/s | -50.1°C | 0.3% | 34.3hPa | 2.6V | 18:12:15 | 02:03:36 | 00:00:00 | |
| DM0DOS-11 | 2026-08-30 12:43:22 | 56.88985 | 4.08832 | 341° | 5km/h | 23314m | 4.7m/s | -50.8°C | 3.7% | 34.7hPa | 2.6V | 08:30:00 | 02:03:22 | 00:00:00 | |
| DL1XH-west | 2026-08-30 12:43:21 | 56.88987 | 4.08831 | 49° | 4km/h | 23334m | 4.2m/s | -50.3°C | 0.4% | 34.6hPa | 2.5V | 18:12:15 | 02:03:26 | 00:00:00 | |
| DJ2DS-15 | 2026-08-30 12:43:18 | 56.88986 | 4.08831 | 319° | 4km/h | 23319m | 4.0m/s | -50.7°C | 1.0% | 34.7hPa | 2.5V | 00:00:00 | 00:00:00 | 00:00:00 | |
| DM0DOS-11 | 2026-08-30 12:43:11 | 56.88947 | 4.08813 | 18° | 18km/h | 23256m | 4.3m/s | -50.9°C | 3.6% | 35hPa | 2.5V | 08:30:00 | 02:03:10 | 00:00:00 | |
| DL1XH-west | 2026-08-30 12:43:10 | 56.88966 | 4.08826 | 16° | 15km/h | 23281m | 5.5m/s | -51°C | 0.5% | 34.9hPa | 2.5V | 18:12:15 | 02:03:15 | 00:00:00 | |
| DJ2DS-15 | 2026-08-30 12:43:02 | 56.88933 | 4.08803 | 20° | 15km/h | 23242m | 5.1m/s | -51.0°C | 3.6% | 35.0hPa | 2.6V | 00:00:00 | 02:03:07 | 00:00:00 | |
| DM0DOS-11 | 2026-08-30 12:43:00 | 56.88915 | 4.08802 | 0° | 13km/h | 23207m | 5.4m/s | -51.4°C | 3.7% | 35.3hPa | 2.6V | 08:30:00 | 02:03:00 | 00:00:00 | |
| DL1XH-west | 2026-08-30 12:42:59 | 56.88924 | 4.08802 | 348° | 9km/h | 23226m | 5.7m/s | -51.2°C | 0.4% | 35.2hPa | 2.5V | 18:12:15 | 02:03:04 | 00:00:00 | |
| DL1XH-west | 2026-08-30 12:42:48 | 56.88882 | 4.08784 | 11° | 20km/h | 23172m | 4.7m/s | -51.7°C | 0.5% | 35.5hPa | 2.6V | 18:12:15 | 02:02:53 | 00:00:00 | |
| DM0DOS-11 | 2026-08-30 12:42:48 | 56.88867 | 4.08783 | 328° | 11km/h | 23147m | 4.8m/s | -51.9°C | 3.9% | 35.6hPa | 2.6V | 08:30:00 | 02:02:48 | 00:00:00 | |
| DL1XH-west | 2026-08-30 12:42:38 | 56.88849 | 4.08785 | 6° | 20km/h | 23122m | 5.4m/s | -52.2°C | 0.6% | 35.7hPa | 2.6V | 18:12:15 | 02:02:43 | 00:00:00 | |
| DL1XH-west | 2026-08-30 12:42:28 | 56.88805 | 4.08787 | 347° | 16km/h | 23073m | 4.4m/s | -52°C | 0.5% | 36hPa | 2.6V | 18:12:15 | 02:02:33 | 00:00:00 | |
| DM0DOS-11 | 2026-08-30 12:42:23 | 56.88766 | 4.08807 | 327° | 11km/h | 23025m | 5.3m/s | -52.4°C | 4% | 36.3hPa | 2.5V | 08:30:00 | 02:02:23 | 00:00:00 | |
| DL1XH-west | 2026-08-30 12:42:17 | 56.88764 | 4.08809 | 329° | 11km/h | 23021m | 4m/s | -52.5°C | 0.7% | 36.3hPa | 2.5V | 18:12:15 | 02:02:22 | 00:00:00 | |
| DM0DOS-11 | 2026-08-30 12:42:09 | 56.88733 | 4.08844 | 317° | 16km/h | 22976m | 4.7m/s | -52.6°C | 4% | 36.5hPa | 2.6V | 08:30:00 | 02:02:13 | 00:00:00 | |
| DL1XH-west | 2026-08-30 12:42:06 | 56.88728 | 4.08853 | 310° | 11km/h | 22966m | 4.7m/s | -52.6°C | 0.7% | 36.6hPa | 2.5V | 18:12:15 | 02:02:11 | 00:00:00 | |
| DL1XH-west | 2026-08-30 12:41:56 | 56.88705 | 4.08896 | 326° | 11km/h | 22916m | 6m/s | -52.5°C | 0.7% | 36.9hPa | 2.5V | 18:12:15 | 02:02:01 | 00:00:00 | |
| DM0DOS-11 | 2026-08-30 12:41:53 | 56.88692 | 4.08915 | 318° | 11km/h | 22886m | 5.8m/s | -52.4°C | 4.1% | 37.1hPa | 2.6V | 08:30:00 | 02:01:55 | 00:00:00 | |
| DL1XH-west | 2026-08-30 12:41:45 | 56.88681 | 4.08917 | 11° | 9km/h | 22861m | 5.6m/s | -52.2°C | 0.7% | 37.2hPa | 2.6V | 18:12:15 | 02:01:50 | 00:00:00 | |
| DL1XH-west | 2026-08-30 12:41:35 | 56.88654 | 4.08920 | 347° | 15km/h | 22811m | 4.7m/s | -52°C | 0.6% | 37.5hPa | 2.6V | 18:12:15 | 02:01:40 | 00:00:00 | |
| DL1XH-west | 2026-08-30 12:41:25 | 56.88604 | 4.08902 | 4° | 20km/h | 22754m | 5.2m/s | -51.9°C | 0.6% | 37.9hPa | 2.6V | 18:12:15 | 02:01:29 | 00:00:00 | |
| DJ2DS-15 | 2026-08-30 12:41:22 | 56.88596 | 4.08900 | 15° | 22km/h | 22744m | 4.1m/s | -51.8°C | 3.8% | 37.9hPa | 2.6V | 00:00:00 | 02:01:27 | 00:00:00 | |
| DM0DOS-11 | 2026-08-30 12:41:18 | 56.88578 | 4.08888 | 33° | 16km/h | 22719m | 4.4m/s | -52°C | 3.9% | 38.1hPa | 2.6V | 08:30:00 | 02:01:22 | 00:00:00 | |
| DL1XH-west | 2026-08-30 12:41:14 | 56.88559 | 4.08872 | 23° | 24km/h | 22699m | 5m/s | -52°C | 0.6% | 38.2hPa | 2.5V | 18:12:15 | 02:01:18 | 00:00:00 | |
| DM0DOS-11 | 2026-08-30 12:41:12 | 56.88523 | 4.08843 | 23° | 26km/h | 22668m | 5.6m/s | -52.1°C | 3.9% | 38.3hPa | 2.5V | 08:30:00 | 02:01:12 | 00:00:00 | |
| DL1XH-west | 2026-08-30 12:41:03 | 56.88501 | 4.08820 | 28° | 26km/h | 22649m | 5m/s | -52°C | 0.6% | 38.5hPa | 2.5V | 18:12:15 | 02:01:08 | 00:00:00 | |
| DJ2DS-15 | 2026-08-30 12:41:02 | 56.88495 | 4.08815 | 26° | 16km/h | 22645m | 4.1m/s | -52.0°C | 3.9% | 38.4hPa | 2.6V | 00:00:00 | 02:01:07 | 00:00:00 | |
| DM0DOS-11 | 2026-08-30 12:41:00 | 56.88465 | 4.08779 | 33° | 15km/h | 22609m | 5.5m/s | -52°C | 3.9% | 38.7hPa | 2.6V | 08:30:00 | 02:01:00 | 00:00:00 | |
| DL1XH-west | 2026-08-30 12:40:52 | 56.88458 | 4.08768 | 32° | 11km/h | 22594m | 6.2m/s | -51.9°C | 0.6% | 38.8hPa | 2.6V | 18:12:15 | 02:00:57 | 00:00:00 | |
| DM0DOS-11 | 2026-08-30 12:40:45 | 56.88436 | 4.08745 | 23° | 16km/h | 22553m | 4.7m/s | -51.9°C | 3.9% | 39.1hPa | 2.5V | 08:30:00 | 02:00:49 | 00:00:00 | |
| DL1XH-west | 2026-08-30 12:40:42 | 56.88428 | 4.08737 | 40° | 18km/h | 22542m | 5m/s | -51.9°C | 0.6% | 39.1hPa | 2.6V | 18:12:15 | 02:00:47 | 00:00:00 | |
| DJ2DS-15 | 2026-08-30 12:40:42 | 56.88428 | 4.08737 | 40° | 22km/h | 22542m | 5.0m/s | -51.8°C | 3.9% | 39.1hPa | 2.6V | 00:00:00 | 02:00:47 | 00:00:00 | |
| DM0DOS-11 | 2026-08-30 12:40:35 | 56.88397 | 4.08706 | 6° | 20km/h | 22501m | 5.1m/s | -51.9°C | 3.8% | 39.4hPa | 2.5V | 08:30:00 | 02:00:39 | 00:00:00 | |
| DL1XH-west | 2026-08-30 12:40:32 | 56.88387 | 4.08705 | 7° | 22km/h | 22491m | 5.9m/s | -51.9°C | 0.5% | 39.4hPa | 2.6V | 18:12:15 | 02:00:37 | 00:00:00 | |
| DM0DOS-11 | 2026-08-30 12:40:28 | 56.88340 | 4.08673 | 30° | 24km/h | 22450m | 5m/s | -52.1°C | 3.9% | 39.7hPa | 2.6V | 08:30:00 | 02:00:29 | 00:00:00 | |
| DL1XH-west | 2026-08-30 12:40:22 | 56.88324 | 4.08662 | 12° | 18km/h | 22434m | 5m/s | -52°C | 0.6% | 39.8hPa | 2.5V | 18:12:15 | 02:00:26 | 00:00:00 | |
| DJ2DS-15 | 2026-08-30 12:40:18 | 56.88311 | 4.08659 | 359° | 18km/h | 22419m | 5.8m/s | -52.1°C | 1.1% | 39.9hPa | 2.6V | 00:00:00 | 00:00:00 | 00:00:00 | |
| DM0DOS-11 | 2026-08-30 12:40:15 | 56.88288 | 4.08662 | 6° | 22km/h | 22399m | 4.9m/s | -52.2°C | 3.9% | 40hPa | 2.6V | 08:30:00 | 02:00:19 | 00:00:00 | |
| DL1XH-west | 2026-08-30 12:40:11 | 56.88272 | 4.08655 | 18° | 15km/h | 22380m | 4.7m/s | -52.3°C | 0.7% | 40.1hPa | 2.5V | 18:12:15 | 02:00:15 | 00:00:00 | |
| DM0DOS-11 | 2026-08-30 12:40:05 | 56.88247 | 4.08636 | 18° | 18km/h | 22349m | 5.2m/s | -52.3°C | 4% | 40.3hPa | 2.5V | 08:30:00 | 02:00:09 | 00:00:00 | |
| DL1XH-west | 2026-08-30 12:40:00 | 56.88228 | 4.08626 | 358° | 13km/h | 22324m | 4m/s | -52.2°C | 0.7% | 40.5hPa | 2.5V | 18:12:15 | 02:00:04 | 00:00:00 | |
| DM0DOS-11 | 2026-08-30 12:39:55 | 56.88214 | 4.08623 | 357° | 13km/h | 22298m | 4.8m/s | -52.1°C | 4% | 40.6hPa | 2.5V | 08:30:00 | 01:59:59 | 00:00:00 | |
| DL1XH-west | 2026-08-30 12:39:49 | 56.88196 | 4.08621 | 357° | 16km/h | 22272m | 5.1m/s | -52°C | 0.7% | 40.8hPa | 2.5V | 18:12:15 | 01:59:54 | 00:00:00 | |
| DL1XH-west | 2026-08-30 12:39:39 | 56.88165 | 4.08621 | 7° | 9km/h | 22221m | 5.5m/s | -51.8°C | 0.5% | 41.1hPa | 2.6V | 18:12:15 | 01:59:44 | 00:00:00 | |
| DM0DOS-11 | 2026-08-30 12:39:35 | 56.88148 | 4.08622 | 359° | 16km/h | 22196m | 4.2m/s | -51.8°C | 3.9% | 41.3hPa | 2.6V | 08:30:00 | 01:59:39 | 00:00:00 | |
| DL1XH-west | 2026-08-30 12:39:29 | 56.88130 | 4.08638 | 306° | 9km/h | 22165m | 5.8m/s | -51.7°C | 0.5% | 41.5hPa | 2.6V | 18:12:15 | 01:59:33 | 00:00:00 | |
| DM0DOS-11 | 2026-08-30 12:39:25 | 56.88124 | 4.08649 | 346° | 11km/h | 22144m | 3.8m/s | -51.5°C | 3.9% | 41.6hPa | 2.5V | 08:30:00 | 01:59:29 | 00:00:00 | |
| DL1XH-west | 2026-08-30 12:39:19 | 56.88105 | 4.08662 | 358° | 11km/h | 22110m | 4.4m/s | -51.3°C | 0.6% | 41.9hPa | 2.6V | 18:12:15 | 01:59:22 | 00:00:00 | |
| DM0DOS-11 | 2026-08-30 12:39:18 | 56.88097 | 4.08663 | 353° | 11km/h | 22094m | 4.7m/s | -51.2°C | 3.8% | 42hPa | 2.5V | 08:30:00 | 01:59:19 | 00:00:00 | |
| DL1XH-west | 2026-08-30 12:39:07 | 56.88067 | 4.08661 | 5° | 15km/h | 22053m | 4.1m/s | -51.2°C | 0.5% | 42.2hPa | 2.6V | 18:12:15 | 01:59:11 | 00:00:00 | |
| DM0DOS-11 | 2026-08-30 12:39:05 | 56.88061 | 4.08660 | 3° | 11km/h | 22043m | 4.5m/s | -51.2°C | 3.8% | 42.3hPa | 2.6V | 08:30:00 | 01:59:09 | 00:00:00 | |
| DJ2DS-15 | 2026-08-30 12:39:02 | 56.88056 | 4.08657 | 35° | 16km/h | 22034m | 5.2m/s | -51.2°C | 3.7% | 42.3hPa | 2.6V | 00:00:00 | 01:59:07 | 00:00:00 | |
| DM0DOS-11 | 2026-08-30 12:38:59 | 56.88031 | 4.08632 | 11° | 20km/h | 21993m | 6m/s | -51.3°C | 3.8% | 42.6hPa | 2.6V | 08:30:00 | 01:58:59 | 00:00:00 | |
| DL1XH-west | 2026-08-30 12:38:55 | 56.88036 | 4.08634 | 18° | 20km/h | 21999m | 4.3m/s | -51.3°C | 0.5% | 42.6hPa | 2.6V | 18:12:15 | 01:59:00 | 00:00:00 | |
| DM0DOS-11 | 2026-08-30 12:38:48 | 56.87982 | 4.08613 | 11° | 18km/h | 21938m | 4.9m/s | -51.3°C | 3.8% | 43hPa | 2.6V | 08:30:00 | 01:58:48 | 00:00:00 | |
| DL1XH-west | 2026-08-30 12:38:44 | 56.87987 | 4.08615 | 19° | 18km/h | 21943m | 4.5m/s | -51.3°C | 0.5% | 42.9hPa | 2.5V | 18:12:15 | 01:58:49 | 00:00:00 | |
| DL1XH-west | 2026-08-30 12:38:34 | 56.87935 | 4.08611 | 5° | 20km/h | 21893m | 4m/s | -51.3°C | 0.6% | 43.3hPa | 2.5V | 18:12:15 | 01:58:39 | 00:00:00 | |
| DJ2DS-15 | 2026-08-30 12:38:30 | 56.87911 | 4.08610 | 10° | 20km/h | 21870m | 4.9m/s | -51.2°C | 1.1% | 43.5hPa | 2.6V | 00:00:00 | 00:00:00 | 00:00:00 | |
| DM0DOS-11 | 2026-08-30 12:38:25 | 56.87858 | 4.08603 | 355° | 24km/h | 21827m | 3.8m/s | -51°C | 3.8% | 43.8hPa | 2.6V | 08:30:00 | 01:58:25 | 00:00:00 | |
| DL1XH-west | 2026-08-30 12:38:24 | 56.87876 | 4.08604 | 4° | 26km/h | 21841m | 4.1m/s | -51.1°C | 0.5% | 43.6hPa | 2.5V | 18:12:15 | 01:58:28 | 00:00:00 | |
| DL1XH-west | 2026-08-30 12:38:14 | 56.87814 | 4.08599 | 355° | 22km/h | 21794m | 3.8m/s | -50.9°C | 0.6% | 44hPa | 2.6V | 18:12:15 | 01:58:18 | 00:00:00 | |
| DM0DOS-11 | 2026-08-30 12:38:13 | 56.87797 | 4.08599 | 3° | 22km/h | 21780m | 4.1m/s | -50.9°C | 3.7% | 44hPa | 2.6V | 08:30:00 | 01:58:15 | 00:00:00 | |
| DL1XH-west | 2026-08-30 12:38:02 | 56.87751 | 4.08594 | 353° | 20km/h | 21737m | 5.2m/s | -50.8°C | 0.5% | 44.3hPa | 2.6V | 18:12:15 | 01:58:06 | 00:00:00 | |
| DM0DOS-11 | 2026-08-30 12:38:02 | 56.87746 | 4.08595 | 358° | 20km/h | 21732m | 4.9m/s | -50.8°C | 3.7% | 44.4hPa | 2.5V | 08:30:00 | 01:58:05 | 00:00:00 | |
| DJ2DS-15 | 2026-08-30 12:38:02 | 56.87756 | 4.08593 | 354° | 18km/h | 21742m | 4.5m/s | -50.8°C | 3.7% | 44.3hPa | 2.5V | 00:00:00 | 01:58:07 | 00:00:00 | |
| DM0DOS-11 | 2026-08-30 12:37:53 | 56.87694 | 4.08608 | 339° | 18km/h | 21684m | 4.7m/s | -50.8°C | 3.7% | 44.7hPa | 2.5V | 08:30:00 | 01:57:55 | 00:00:00 | |
| DL1XH-west | 2026-08-30 12:37:52 | 56.87698 | 4.08605 | 336° | 20km/h | 21688m | 4.3m/s | -50.9°C | 0.5% | 44.6hPa | 2.6V | 18:12:15 | 01:57:56 | 00:00:00 | |
| DL1XH-west | 2026-08-30 12:37:40 | 56.87653 | 4.08619 | 332° | 18km/h | 21636m | 3.7m/s | -51°C | 0.6% | 45hPa | 2.6V | 18:12:15 | 01:57:45 | 00:00:00 | |
| DM0DOS-11 | 2026-08-30 12:37:35 | 56.87638 | 4.08634 | 317° | 7km/h | 21612m | 5.5m/s | -51°C | 3.8% | 45.2hPa | 2.6V | 08:30:00 | 01:57:40 | 00:00:00 | |
| DL1XH-west | 2026-08-30 12:37:30 | 56.87633 | 4.08639 | 342° | 5km/h | 21588m | 5.1m/s | -50.8°C | 0.5% | 45.4hPa | 2.6V | 18:12:15 | 01:57:35 | 00:00:00 | |
| DL1XH-west | 2026-08-30 12:37:21 | 56.87608 | 4.08647 | 360° | 2km/h | 21540m | 4.1m/s | -50.6°C | 0.5% | 45.7hPa | 2.5V | 18:12:15 | 01:57:25 | 00:00:00 | |
| DM0DOS-11 | 2026-08-30 12:37:20 | 56.87604 | 4.08654 | 352° | 7km/h | 21516m | 4.3m/s | -50.5°C | 3.7% | 45.9hPa | 2.5V | 08:30:00 | 01:57:20 | 00:00:00 | |
| DM0DOS-11 | 2026-08-30 12:37:10 | 56.87586 | 4.08647 | 72° | 2km/h | 21470m | 3.6m/s | -50.6°C | 3.7% | 46.2hPa | 2.5V | 08:30:00 | 01:57:10 | 00:00:00 | |
| DL1XH-west | 2026-08-30 12:37:10 | 56.87589 | 4.08656 | 46° | 7km/h | 21490m | 4.5m/s | -50.7°C | 0.5% | 46.1hPa | 2.5V | 18:12:15 | 01:57:14 | 00:00:00 | |
| DJ2DS-15 | 2026-08-30 12:37:02 | 56.87586 | 4.08643 | 68° | 9km/h | 21457m | 4.3m/s | -50.6°C | 3.6% | 46.2hPa | 2.6V | 00:00:00 | 01:57:07 | 00:00:00 | |
| DM0DOS-11 | 2026-08-30 12:37:00 | 56.87576 | 4.08630 | 62° | 11km/h | 21423m | 5.6m/s | -50.7°C | 3.7% | 46.6hPa | 2.6V | 08:30:00 | 01:57:00 | 00:00:00 | |
| DL1XH-west | 2026-08-30 12:36:58 | 56.87581 | 4.08640 | 23° | 7km/h | 21438m | 5.4m/s | -50.7°C | 0.5% | 46.4hPa | 2.5V | 18:12:15 | 01:57:03 | 00:00:00 | |
| DM0DOS-11 | 2026-08-30 12:36:50 | 56.87574 | 4.08581 | 74° | 9km/h | 21376m | 5.2m/s | -50.9°C | 3.7% | 46.9hPa | 2.6V | 08:30:00 | 01:56:50 | 00:00:00 | |
| DL1XH-west | 2026-08-30 12:36:48 | 56.87574 | 4.08590 | 92° | 11km/h | 21385m | 5m/s | -50.8°C | 0.5% | 46.8hPa | 2.5V | 18:12:15 | 01:56:52 | 00:00:00 | |
| DJ2DS-15 | 2026-08-30 12:36:42 | 56.87561 | 4.08553 | 46° | 15km/h | 21346m | 4.9m/s | -50.8°C | 1.1% | 47.1hPa | 2.6V | 00:00:00 | 00:00:00 | 00:00:00 | |
| DM0DOS-11 | 2026-08-30 12:36:40 | 56.87553 | 4.08532 | 57° | 15km/h | 21327m | 4.2m/s | -50.6°C | 3.7% | 47.2hPa | 2.6V | 08:30:00 | 01:56:40 | 00:00:00 | |
| DL1XH-west | 2026-08-30 12:36:37 | 56.87555 | 4.08537 | 58° | 15km/h | 21332m | 4.6m/s | -50.7°C | 0.5% | 47.2hPa | 2.5V | 18:12:15 | 01:56:41 | 00:00:00 | |
| DM0DOS-11 | 2026-08-30 12:36:30 | 56.87531 | 4.08491 | 72° | 16km/h | 21278m | 4.6m/s | -50.5°C | 3.6% | 47.6hPa | 2.5V | 08:30:00 | 01:56:30 | 00:00:00 | |
| DL1XH-west | 2026-08-30 12:36:25 | 56.87531 | 4.08491 | 72° | 16km/h | 21278m | 4.6m/s | -50.5°C | 0.4% | 47.6hPa | 2.5V | 18:12:15 | 01:56:30 | 00:00:00 | |
| DJ2DS-15 | 2026-08-30 12:36:20 | 56.87523 | 4.08460 | 47° | 16km/h | 21256m | 4.6m/s | -50.7°C | 3.7% | 47.7hPa | 2.5V | 00:00:00 | 01:56:25 | 00:00:00 | |
| DM0DOS-11 | 2026-08-30 12:36:17 | 56.87512 | 4.08437 | 52° | 9km/h | 21233m | 4.1m/s | -50.6°C | 3.7% | 47.9hPa | 2.5V | 08:30:00 | 01:56:20 | 00:00:00 | |
| DL1XH-west | 2026-08-30 12:36:14 | 56.87510 | 4.08433 | 57° | 13km/h | 21228m | 5.4m/s | -50.7°C | 0.5% | 48hPa | 2.5V | 18:12:15 | 01:56:19 | 00:00:00 | |
| DM0DOS-11 | 2026-08-30 12:36:07 | 56.87497 | 4.08358 | 70° | 15km/h | 21179m | 3.4m/s | -50.5°C | 3.7% | 48.3hPa | 2.5V | 08:30:00 | 01:56:09 | 00:00:00 | |
| DL1XH-west | 2026-08-30 12:36:04 | 56.87496 | 4.08352 | 68° | 13km/h | 21175m | 4.6m/s | -50.5°C | 0.5% | 48.3hPa | 2.5V | 18:12:15 | 01:56:08 | 00:00:00 | |
| DJ2DS-15 | 2026-08-30 12:36:00 | 56.87492 | 4.08331 | 79° | 24km/h | 21161m | 4.7m/s | -50.4°C | 3.7% | 48.4hPa | 2.6V | 00:00:00 | 01:56:05 | 00:00:00 | |
| DM0DOS-11 | 2026-08-30 12:35:55 | 56.87487 | 4.08239 | 80° | 26km/h | 21118m | 5.4m/s | -50.3°C | 3.7% | 48.8hPa | 2.6V | 08:30:00 | 01:55:56 | 00:00:00 | |
| DL1XH-west | 2026-08-30 12:35:54 | 56.87488 | 4.08262 | 86° | 26km/h | 21128m | 4.4m/s | -50.3°C | 0.5% | 48.7hPa | 2.5V | 18:12:15 | 01:55:58 | 00:00:00 | |
| DL1XH-west | 2026-08-30 12:35:43 | 56.87475 | 4.08151 | 73° | 26km/h | 21079m | 5.3m/s | -50.2°C | 0.4% | 49.1hPa | 2.6V | 18:12:15 | 01:55:48 | 00:00:00 | |
| DL1XH-west | 2026-08-30 12:35:32 | 56.87451 | 4.08031 | 63° | 27km/h | 21027m | 5.5m/s | -50.3°C | 0.4% | 49.5hPa | 2.6V | 18:12:15 | 01:55:37 | 00:00:00 | |
| DJ2DS-15 | 2026-08-30 12:35:30 | 56.87442 | 4.07998 | 59° | 26km/h | 21012m | 4.8m/s | -50.3°C | 1.0% | 49.6hPa | 2.5V | 00:00:00 | 00:00:00 | 00:00:00 | |
| DM0DOS-11 | 2026-08-30 12:35:28 | 56.87429 | 4.07947 | 62° | 22km/h | 20988m | 5.2m/s | -50.4°C | 3.6% | 49.8hPa | 2.5V | 08:30:00 | 01:55:29 | 00:00:00 | |
| DL1XH-west | 2026-08-30 12:35:22 | 56.87418 | 4.07922 | 48° | 26km/h | 20974m | 5.5m/s | -50.4°C | 0.5% | 49.9hPa | 2.6V | 18:12:15 | 01:55:26 | 00:00:00 | |
| DJ2DS-15 | 2026-08-30 12:35:20 | 56.87413 | 4.07912 | 50° | 27km/h | 20969m | 4.5m/s | -50.4°C | 3.7% | 49.9hPa | 2.5V | 00:00:00 | 01:55:25 | 00:00:00 | |
| DM0DOS-11 | 2026-08-30 12:35:18 | 56.87384 | 4.07846 | 58° | 29km/h | 20940m | 5m/s | -50.5°C | 3.6% | 50.1hPa | 2.5V | 08:30:00 | 01:55:19 | 00:00:00 | |
| DL1XH-west | 2026-08-30 12:35:12 | 56.87374 | 4.07817 | 63° | 22km/h | 20925m | 5.4m/s | -50.5°C | 0.4% | 50.3hPa | 2.6V | 18:12:15 | 01:55:16 | 00:00:00 | |
| DM0DOS-11 | 2026-08-30 12:35:07 | 56.87354 | 4.07748 | 57° | 27km/h | 20891m | 4.2m/s | -50.4°C | 3.7% | 50.5hPa | 2.5V | 08:30:00 | 01:55:09 | 00:00:00 | |
| DL1XH-west | 2026-08-30 12:35:01 | 56.87337 | 4.07710 | 49° | 26km/h | 20872m | 5.2m/s | -50.5°C | 0.5% | 50.7hPa | 2.6V | 18:12:15 | 01:55:05 | 00:00:00 | |
| DL1XH-west | 2026-08-30 12:34:50 | 56.87286 | 4.07605 | 40° | 26km/h | 20818m | 5.6m/s | -50.6°C | 0.5% | 51.1hPa | 2.6V | 18:12:15 | 01:54:54 | 00:00:00 | |
| DM0DOS-11 | 2026-08-30 12:34:46 | 56.87258 | 4.07559 | 38° | 37km/h | 20795m | 4.7m/s | -50.7°C | 3.7% | 51.3hPa | 2.6V | 08:30:00 | 01:54:49 | 00:00:00 | |
| DL1XH-west | 2026-08-30 12:34:39 | 56.87215 | 4.07485 | 43° | 40km/h | 20765m | 4.4m/s | -50.8°C | 0.5% | 51.5hPa | 2.6V | 18:12:15 | 01:54:43 | 00:00:00 | |
| DM0DOS-11 | 2026-08-30 12:34:36 | 56.87186 | 4.07441 | 34° | 37km/h | 20746m | 4.6m/s | -50.9°C | 3.7% | 51.7hPa | 2.6V | 08:30:00 | 01:54:39 | 00:00:00 | |
| DL1XH-west | 2026-08-30 12:34:28 | 56.87125 | 4.07366 | 33° | 44km/h | 20713m | 5m/s | -51.1°C | 0.5% | 51.9hPa | 2.6V | 18:12:15 | 01:54:32 | 00:00:00 | |
| DM0DOS-11 | 2026-08-30 12:34:26 | 56.87098 | 4.07338 | 24° | 38km/h | 20698m | 4.7m/s | -51.1°C | 3.7% | 52hPa | 2.5V | 08:30:00 | 01:54:29 | 00:00:00 | |
| DL1XH-west | 2026-08-30 12:34:16 | 56.87030 | 4.07301 | 16° | 35km/h | 20658m | 4.9m/s | -51.3°C | 0.6% | 52.4hPa | 2.6V | 18:12:15 | 01:54:21 | 00:00:00 | |
| DM0DOS-11 | 2026-08-30 12:34:16 | 56.87013 | 4.07293 | 15° | 37km/h | 20649m | 5.1m/s | -51.4°C | 3.8% | 52.4hPa | 2.5V | 08:30:00 | 01:54:19 | 00:00:00 | |
| DL1XH-west | 2026-08-30 12:34:06 | 56.86946 | 4.07270 | 9° | 33km/h | 20611m | 4.1m/s | -51.5°C | 0.5% | 52.7hPa | 2.6V | 18:12:15 | 01:54:11 | 00:00:00 | |
| DM0DOS-11 | 2026-08-30 12:34:06 | 56.86931 | 4.07265 | 10° | 27km/h | 20601m | 4.5m/s | -51.5°C | 3.9% | 52.8hPa | 2.6V | 08:30:00 | 01:54:09 | 00:00:00 | |
| DL1XH-west | 2026-08-30 12:33:56 | 56.86878 | 4.07257 | 2° | 27km/h | 20562m | 4m/s | -51.5°C | 0.6% | 53.2hPa | 2.5V | 18:12:15 | 01:54:01 | 00:00:00 | |
| DM0DOS-11 | 2026-08-30 12:33:56 | 56.86865 | 4.07256 | 0° | 22km/h | 20552m | 4.4m/s | -51.4°C | 3.8% | 53.3hPa | 2.6V | 08:30:00 | 01:53:59 | 00:00:00 | |
| DL1XH-west | 2026-08-30 12:33:46 | 56.86818 | 4.07249 | 15° | 24km/h | 20509m | 5.4m/s | -51.3°C | 0.5% | 53.6hPa | 2.5V | 18:12:15 | 01:53:50 | 00:00:00 | |
| DM0DOS-11 | 2026-08-30 12:33:46 | 56.86813 | 4.07246 | 13° | 22km/h | 20503m | 4.8m/s | -51.3°C | 3.8% | 53.6hPa | 2.6V | 08:30:00 | 01:53:49 | 00:00:00 | |
| DJ2DS-15 | 2026-08-30 12:33:40 | 56.86791 | 4.07242 | 359° | 20km/h | 20484m | 5.4m/s | -51.3°C | 3.8% | 53.7hPa | 2.5V | 00:00:00 | 01:53:45 | 00:00:00 | |
| DM0DOS-11 | 2026-08-30 12:33:36 | 56.86768 | 4.07233 | 33° | 20km/h | 20454m | 4.8m/s | -51.4°C | 3.9% | 54hPa | 2.5V | 08:30:00 | 01:53:39 | 00:00:00 | |
| DL1XH-west | 2026-08-30 12:33:35 | 56.86772 | 4.07238 | 24° | 18km/h | 20459m | 5.2m/s | -51.4°C | 0.6% | 54hPa | 2.5V | 18:12:15 | 01:53:40 | 00:00:00 | |
| DM0DOS-11 | 2026-08-30 12:33:26 | 56.86727 | 4.07165 | 36° | 20km/h | 20405m | 4.5m/s | -51.4°C | 3.8% | 54.4hPa | 2.5V | 08:30:00 | 01:53:29 | 00:00:00 | |
| DL1XH-west | 2026-08-30 12:33:25 | 56.86727 | 4.07165 | 36° | 20km/h | 20405m | 4.5m/s | -51.4°C | 0.6% | 54.4hPa | 2.5V | 18:12:15 | 01:53:29 | 00:00:00 | |
| DJ2DS-15 | 2026-08-30 12:33:20 | 56.86710 | 4.07136 | 52° | 33km/h | 20387m | 4.1m/s | -51.2°C | 3.8% | 54.6hPa | 2.5V | 00:00:00 | 01:53:25 | 00:00:00 | |
| DM0DOS-11 | 2026-08-30 12:33:15 | 56.86679 | 4.07070 | 46° | 31km/h | 20357m | 4.7m/s | -51.2°C | 3.8% | 54.9hPa | 2.5V | 08:30:00 | 01:53:19 | 00:00:00 | |
| DL1XH-west | 2026-08-30 12:33:14 | 56.86673 | 4.07059 | 42° | 33km/h | 20352m | 5.1m/s | -51.2°C | 0.6% | 54.9hPa | 2.5V | 18:12:15 | 01:53:18 | 00:00:00 | |
| DM0DOS-11 | 2026-08-30 12:33:05 | 56.86620 | 4.06967 | 51° | 35km/h | 20308m | 3.9m/s | -51°C | 3.8% | 55.3hPa | 2.6V | 08:30:00 | 01:53:09 | 00:00:00 | |
| DL1XH-west | 2026-08-30 12:33:02 | 56.86608 | 4.06941 | 45° | 40km/h | 20299m | 4.6m/s | -50.9°C | 0.6% | 55.4hPa | 2.5V | 18:12:15 | 01:53:07 | 00:00:00 | |
| DJ2DS-15 | 2026-08-30 12:33:00 | 56.86593 | 4.06916 | 42° | 37km/h | 20290m | 5.3m/s | -50.8°C | 3.8% | 55.4hPa | 2.6V | 00:00:00 | 01:53:05 | 00:00:00 | |
| DM0DOS-11 | 2026-08-30 12:32:55 | 56.86550 | 4.06846 | 42° | 35km/h | 20260m | 4.5m/s | -50.6°C | 3.8% | 55.7hPa | 2.6V | 08:30:00 | 01:52:59 | 00:00:00 | |
| DL1XH-west | 2026-08-30 12:32:51 | 56.86529 | 4.06814 | 37° | 38km/h | 20246m | 4.2m/s | -50.6°C | 0.5% | 55.8hPa | 2.5V | 18:12:15 | 01:52:56 | 00:00:00 | |
| DM0DOS-11 | 2026-08-30 12:32:45 | 56.86479 | 4.06744 | 40° | 37km/h | 20210m | 4.5m/s | -50.3°C | 3.7% | 56.1hPa | 2.6V | 08:30:00 | 01:52:49 | 00:00:00 | |
| DL1XH-west | 2026-08-30 12:32:41 | 56.86457 | 4.06712 | 36° | 38km/h | 20196m | 4.3m/s | -50.3°C | 0.5% | 56.2hPa | 2.5V | 18:12:15 | 01:52:46 | 00:00:00 | |
| DJ2DS-15 | 2026-08-30 12:32:40 | 56.86450 | 4.06702 | 37° | 37km/h | 20191m | 5.4m/s | -50.2°C | 3.7% | 56.2hPa | 2.5V | 00:00:00 | 01:52:45 | 08:30:00 | |
| DM0DOS-11 | 2026-08-30 12:32:35 | 56.86404 | 4.06654 | 28° | 35km/h | 20163m | 5.2m/s | -50.2°C | 3.6% | 56.6hPa | 2.5V | 08:30:00 | 01:52:39 | 00:00:00 | |
| DL1XH-west | 2026-08-30 12:32:30 | 56.86374 | 4.06619 | 36° | 38km/h | 20143m | 4.1m/s | -50.1°C | 0.5% | 56.7hPa | 2.5V | 18:12:15 | 01:52:35 | 00:00:00 | |
| DJ2DS-15 | 2026-08-30 12:32:29 | 56.86366 | 4.06609 | 38° | 35km/h | 20139m | 5.3m/s | -50.1°C | 1.0% | 56.7hPa | 2.6V | 00:00:00 | 00:00:00 | 00:00:00 | |
| DM0DOS-11 | 2026-08-30 12:32:28 | 56.86311 | 4.06558 | 14° | 38km/h | 20104m | 5.7m/s | -49.9°C | 3.6% | 57hPa | 2.6V | 08:30:00 | 01:52:27 | 00:00:00 | |
| DL1XH-west | 2026-08-30 12:32:20 | 56.86291 | 4.06549 | 16° | 40km/h | 20094m | 5.1m/s | -49.8°C | 0.5% | 57.1hPa | 2.6V | 18:12:15 | 01:52:25 | 00:00:00 | |
| DJ2DS-15 | 2026-08-30 12:32:19 | 56.86281 | 4.06543 | 18° | 38km/h | 20089m | 5.0m/s | -49.7°C | 3.6% | 57.2hPa | 2.5V | 00:00:00 | 01:52:24 | 00:00:00 | |
| DM0DOS-11 | 2026-08-30 12:32:16 | 56.86218 | 4.06494 | 27° | 35km/h | 20057m | 4.2m/s | -49.8°C | 3.5% | 57.5hPa | 2.5V | 08:30:00 | 01:52:17 | 00:00:00 | |
| DL1XH-west | 2026-08-30 12:32:09 | 56.86195 | 4.06474 | 23° | 37km/h | 20043m | 4.7m/s | -49.9°C | 0.4% | 57.6hPa | 2.6V | 18:12:15 | 01:52:14 | 00:00:00 | |
| DM0DOS-11 | 2026-08-30 12:32:05 | 56.86129 | 4.06452 | 6° | 38km/h | 20009m | 4.8m/s | -50.1°C | 3.6% | 57.8hPa | 2.5V | 08:30:00 | 01:52:07 | 00:00:00 | |
| DL1XH-west | 2026-08-30 12:31:59 | 56.86092 | 4.06437 | 16° | 40km/h | 19990m | 4.5m/s | -50°C | 0.4% | 58.1hPa | 2.6V | 18:12:15 | 01:52:03 | 00:00:00 | |
| DM0DOS-11 | 2026-08-30 12:31:55 | 56.86039 | 4.06421 | 3° | 33km/h | 19962m | 4.2m/s | -50°C | 3.6% | 58.3hPa | 2.6V | 08:30:00 | 01:51:57 | 00:00:00 | |
| DL1XH-west | 2026-08-30 12:31:47 | 56.85999 | 4.06420 | 9° | 35km/h | 19939m | 4.9m/s | -50.1°C | 0.5% | 58.5hPa | 2.6V | 18:12:15 | 01:51:52 | 00:00:00 | |
| DM0DOS-11 | 2026-08-30 12:31:42 | 56.85949 | 4.06388 | 20° | 35km/h | 19909m | 4m/s | -50°C | 3.6% | 58.8hPa | 2.6V | 08:30:00 | 01:51:46 | 00:00:00 | |
| DL1XH-west | 2026-08-30 12:31:37 | 56.85920 | 4.06373 | 10° | 27km/h | 19891m | 3.9m/s | -49.8°C | 0.4% | 58.9hPa | 2.6V | 18:12:15 | 01:51:42 | 00:00:00 | |
| DL1XH-west | 2026-08-30 12:31:26 | 56.85842 | 4.06321 | 18° | 29km/h | 19839m | 4.1m/s | -49.7°C | 0.4% | 59.4hPa | 2.6V | 18:12:15 | 01:51:31 | 00:00:00 | |
| DL1XH-west | 2026-08-30 12:31:15 | 56.85766 | 4.06244 | 32° | 27km/h | 19786m | 3.9m/s | -49.7°C | 0.4% | 59.9hPa | 2.6V | 18:12:15 | 01:51:20 | 00:00:00 | |
| DL1XH-west | 2026-08-30 12:31:04 | 56.85705 | 4.06151 | 42° | 27km/h | 19733m | 4.7m/s | -49.7°C | 0.4% | 60.4hPa | 2.6V | 18:12:15 | 01:51:09 | 00:00:00 | |
| DL1XH-west | 2026-08-30 12:30:55 | 56.85652 | 4.06049 | 44° | 31km/h | 19684m | 5.7m/s | -49.3°C | 0.4% | 60.8hPa | 2.5V | 18:12:15 | 01:50:59 | 00:00:00 | |
| DL1XH-west | 2026-08-30 12:30:43 | 56.85596 | 4.05966 | 54° | 31km/h | 19630m | 4.6m/s | -49°C | 0.4% | 61.3hPa | 2.6V | 18:12:15 | 01:50:48 | 00:00:00 | |
| DL1XH-west | 2026-08-30 12:30:33 | 56.85553 | 4.05861 | 52° | 29km/h | 19578m | 3.8m/s | -48.8°C | 0.2% | 61.8hPa | 2.5V | 18:12:15 | 01:50:37 | 00:00:00 | |
| DL1XH-west | 2026-08-30 12:30:22 | 56.85515 | 4.05775 | 32° | 18km/h | 19530m | 5.4m/s | -49.1°C | 0.3% | 62.3hPa | 2.6V | 18:12:15 | 01:50:27 | 00:00:00 | |
| DM0DOS-11 | 2026-08-30 12:30:19 | 56.85489 | 4.05714 | 67° | 26km/h | 19492m | 4.9m/s | -49.3°C | 3.5% | 62.6hPa | 2.5V | 08:30:00 | 01:50:19 | 00:00:00 | |
| DL1XH-west | 2026-08-30 12:30:12 | 56.85484 | 4.05693 | 66° | 24km/h | 19483m | 3.4m/s | -49.3°C | 0.3% | 62.8hPa | 2.6V | 18:12:15 | 01:50:17 | 00:00:00 | |
| DM0DOS-11 | 2026-08-30 12:30:09 | 56.85453 | 4.05623 | 40° | 22km/h | 19445m | 4.6m/s | -49.2°C | 3.5% | 63.1hPa | 2.5V | 08:30:00 | 01:50:09 | 00:00:00 | |
| DL1XH-west | 2026-08-30 12:30:02 | 56.85441 | 4.05602 | 45° | 24km/h | 19431m | 5.1m/s | -49.2°C | 0.4% | 63.2hPa | 2.6V | 18:12:15 | 01:50:06 | 00:00:00 | |
| DJ2DS-15 | 2026-08-30 12:29:59 | 56.85432 | 4.05585 | 50° | 27km/h | 19422m | 5.2m/s | -49.2°C | 3.5% | 63.3hPa | 2.5V | 00:00:00 | 01:50:04 | 00:00:00 | |
| DM0DOS-11 | 2026-08-30 12:29:57 | 56.85410 | 4.05545 | 34° | 26km/h | 19397m | 5.4m/s | -49.2°C | 3.5% | 63.5hPa | 2.5V | 08:30:00 | 01:49:59 | 00:00:00 | |
| DL1XH-west | 2026-08-30 12:29:52 | 56.85399 | 4.05534 | 26° | 24km/h | 19388m | 3.5m/s | -49.2°C | 0.4% | 63.6hPa | 2.6V | 18:12:15 | 01:49:57 | 00:00:00 | |
| DM0DOS-11 | 2026-08-30 12:29:46 | 56.85352 | 4.05473 | 30° | 29km/h | 19351m | 4m/s | -49°C | 3.5% | 64hPa | 2.5V | 08:30:00 | 01:49:49 | 00:00:00 | |
| DL1XH-west | 2026-08-30 12:29:41 | 56.85334 | 4.05457 | 25° | 26km/h | 19337m | 3.7m/s | -49°C | 0.3% | 64.1hPa | 2.6V | 18:12:15 | 01:49:46 | 00:00:00 | |
| DJ2DS-15 | 2026-08-30 12:29:39 | 56.85321 | 4.05445 | 29° | 29km/h | 19328m | 4.0m/s | -48.8°C | 3.4% | 64.2hPa | 2.6V | 00:00:00 | 01:49:44 | 08:30:00 | |
| DM0DOS-11 | 2026-08-30 12:29:36 | 56.85290 | 4.05407 | 32° | 33km/h | 19305m | 4.5m/s | -49°C | 3.5% | 64.5hPa | 2.6V | 08:30:00 | 01:49:39 | 00:00:00 | |
| DL1XH-west | 2026-08-30 12:29:31 | 56.85268 | 4.05387 | 20° | 29km/h | 19292m | 4.5m/s | -49.2°C | 0.4% | 64.6hPa | 2.5V | 18:12:15 | 01:49:36 | 00:00:00 | |
| DJ2DS-15 | 2026-08-30 12:29:29 | 56.85248 | 4.05378 | 12° | 29km/h | 19279m | 4.9m/s | -49.1°C | 1.0% | 64.7hPa | 2.5V | 00:00:00 | 00:00:00 | 00:00:00 | |
| DM0DOS-11 | 2026-08-30 12:29:26 | 56.85204 | 4.05354 | 20° | 31km/h | 19250m | 3.8m/s | -48.9°C | 3.5% | 65hPa | 2.5V | 08:30:00 | 01:49:27 | 00:00:00 | |
| DL1XH-west | 2026-08-30 12:29:21 | 56.85185 | 4.05340 | 23° | 24km/h | 19236m | 3.8m/s | -48.8°C | 0.3% | 65.2hPa | 2.6V | 18:12:15 | 01:49:24 | 00:00:00 | |
| DJ2DS-15 | 2026-08-30 12:29:19 | 56.85185 | 4.05340 | 23° | 24km/h | 19236m | 3.7m/s | -48.8°C | 3.5% | 65.1hPa | 2.5V | 00:00:00 | 01:49:24 | 00:00:00 | |
| DM0DOS-11 | 2026-08-30 12:29:15 | 56.85143 | 4.05316 | 13° | 26km/h | 19203m | 4.3m/s | -48.7°C | 3.4% | 65.5hPa | 2.5V | 08:30:00 | 01:49:17 | 00:00:00 | |
| DL1XH-west | 2026-08-30 12:29:10 | 56.85126 | 4.05307 | 22° | 22km/h | 19189m | 4m/s | -48.6°C | 0.3% | 65.6hPa | 2.6V | 18:12:15 | 01:49:14 | 00:00:00 | |
| DM0DOS-11 | 2026-08-30 12:29:07 | 56.85089 | 4.05275 | 23° | 26km/h | 19155m | 3.6m/s | -48.8°C | 3.4% | 66hPa | 2.6V | 08:30:00 | 01:49:07 | 00:00:00 | |
| DL1XH-west | 2026-08-30 12:29:00 | 56.85079 | 4.05266 | 29° | 22km/h | 19146m | 5m/s | -48.9°C | 0.3% | 66.1hPa | 2.5V | 18:12:15 | 01:49:05 | 00:00:00 | |
| DJ2DS-15 | 2026-08-30 12:28:59 | 56.85074 | 4.05261 | 33° | 22km/h | 19142m | 4.5m/s | -48.8°C | 3.4% | 66.1hPa | 2.5V | 00:00:00 | 01:49:04 | 00:00:00 | |
| DM0DOS-11 | 2026-08-30 12:28:56 | 56.85045 | 4.05225 | 37° | 26km/h | 19108m | 3.8m/s | -48.7°C | 3.4% | 66.4hPa | 2.5V | 08:30:00 | 01:48:57 | 00:00:00 | |
| DL1XH-west | 2026-08-30 12:28:49 | 56.85031 | 4.05198 | 49° | 27km/h | 19094m | 4m/s | -48.6°C | 0.2% | 66.6hPa | 2.6V | 18:12:15 | 01:48:54 | 00:00:00 | |
| DM0DOS-11 | 2026-08-30 12:28:45 | 56.85000 | 4.05143 | 42° | 20km/h | 19060m | 4.3m/s | -48.6°C | 3.4% | 66.9hPa | 2.6V | 08:30:00 | 01:48:47 | 00:00:00 | |
| DL1XH-west | 2026-08-30 12:28:38 | 56.84985 | 4.05113 | 47° | 26km/h | 19040m | 4.3m/s | -48.6°C | 0.3% | 67.1hPa | 2.6V | 18:12:15 | 01:48:43 | 00:00:00 | |
| DM0DOS-11 | 2026-08-30 12:28:34 | 56.84961 | 4.05056 | 51° | 24km/h | 19013m | 3.9m/s | -48.6°C | 3.3% | 67.4hPa | 2.6V | 08:30:00 | 01:48:37 | 00:00:00 | |
| DL1XH-west | 2026-08-30 12:28:28 | 56.84948 | 4.05017 | 59° | 26km/h | 18994m | 4.4m/s | -48.7°C | 0.3% | 67.6hPa | 2.5V | 18:12:15 | 01:48:33 | 00:00:00 | |
| DL1XH-west | 2026-08-30 12:28:17 | 56.84920 | 4.04889 | 71° | 27km/h | 18943m | 5.3m/s | -48.6°C | 0.2% | 68.1hPa | 2.6V | 18:12:15 | 01:48:22 | 00:00:00 | |
| DM0DOS-11 | 2026-08-30 12:28:13 | 56.84905 | 4.04826 | 58° | 33km/h | 18920m | 5.2m/s | -48.7°C | 3.3% | 68.4hPa | 2.6V | 08:30:00 | 01:48:17 | 00:00:00 | |
| DL1XH-west | 2026-08-30 12:28:07 | 56.84876 | 4.04763 | 49° | 26km/h | 18891m | 4.5m/s | -48.9°C | 0.2% | 68.7hPa | 2.6V | 18:12:15 | 01:48:11 | 00:00:00 | |
| DL1XH-west | 2026-08-30 12:27:56 | 56.84818 | 4.04634 | 38° | 37km/h | 18840m | 4.4m/s | -49.5°C | 0.4% | 69.2hPa | 2.6V | 18:12:15 | 01:48:00 | 00:00:00 | |
| DL1XH-west | 2026-08-30 12:27:46 | 56.84758 | 4.04532 | 48° | 37km/h | 18799m | 5.1m/s | -49.8°C | 0.4% | 69.7hPa | 2.6V | 18:12:15 | 01:47:51 | 00:00:00 | |
| DL1XH-west | 2026-08-30 12:27:36 | 56.84685 | 4.04411 | 36° | 46km/h | 18753m | 4.3m/s | -49.7°C | 0.5% | 70.2hPa | 2.5V | 18:12:15 | 01:47:41 | 00:00:00 | |
| DM0DOS-11 | 2026-08-30 12:27:35 | 56.84648 | 4.04365 | 37° | 42km/h | 18733m | 3.9m/s | 0°C | 0% | 0hPa | 2.5V | 08:30:00 | 01:47:37 | 00:00:00 | |
| DL1XH-west | 2026-08-30 12:27:26 | 56.84600 | 4.04306 | 36° | 40km/h | 18707m | 3.4m/s | -49.5°C | 0.4% | 70.7hPa | 2.6V | 18:12:15 | 01:47:31 | 00:00:00 | |
| DM0DOS-11 | 2026-08-30 12:27:24 | 56.84544 | 4.04249 | 27° | 42km/h | 18679m | 5.5m/s | 0°C | 0% | 0hPa | 2.6V | 08:30:00 | 01:47:25 | 00:00:00 | |
| DL1XH-west | 2026-08-30 12:27:15 | 56.84503 | 4.04203 | 37° | 35km/h | 18657m | 4.4m/s | -49.5°C | 0.4% | 71.2hPa | 2.6V | 18:12:15 | 01:47:20 | 00:00:00 | |
| DL1XH-west | 2026-08-30 12:27:05 | 56.84432 | 4.04120 | 29° | 37km/h | 18613m | 4m/s | -49.4°C | 0.4% | 71.7hPa | 2.5V | 18:12:15 | 01:47:10 | 00:00:00 | |
| DL1XH-west | 2026-08-30 12:26:55 | 56.84341 | 4.04053 | 19° | 33km/h | 18561m | 4.6m/s | -49.1°C | 0.3% | 72.2hPa | 2.6V | 18:12:15 | 01:46:59 | 00:00:00 | |
| DL1XH-west | 2026-08-30 12:26:44 | 56.84261 | 4.04006 | 27° | 29km/h | 18516m | 4.8m/s | -49.4°C | 0.4% | 72.7hPa | 2.5V | 18:12:15 | 01:46:49 | 00:00:00 | |
| DL1XH-west | 2026-08-30 12:26:34 | 56.84183 | 4.03947 | 23° | 31km/h | 18464m | 3.7m/s | -49.2°C | 0.4% | 73.3hPa | 2.6V | 18:12:15 | 01:46:38 | 00:00:00 | |
| DL1XH-west | 2026-08-30 12:26:23 | 56.84120 | 4.03888 | 24° | 27km/h | 18418m | 4.6m/s | -49.1°C | 0.4% | 73.8hPa | 2.6V | 18:12:15 | 01:46:28 | 00:00:00 | |
| DJ2DS-15 | 2026-08-30 12:26:19 | 56.84095 | 4.03861 | 38° | 27km/h | 18400m | 3.6m/s | -48.9°C | 3.5% | 74.0hPa | 2.5V | 00:00:00 | 01:46:24 | 00:00:00 | |
| DM0DOS-11 | 2026-08-30 12:26:15 | 56.84050 | 4.03786 | 50° | 26km/h | 18357m | 3.5m/s | 0°C | 0% | 0hPa | 2.5V | 08:30:00 | 01:46:15 | 00:00:00 | |
| DL1XH-west | 2026-08-30 12:26:13 | 56.84064 | 4.03812 | 43° | 27km/h | 18372m | 5.3m/s | -48.9°C | 0.3% | 74.4hPa | 2.5V | 18:12:15 | 01:46:18 | 00:00:00 | |
| DL1XH-west | 2026-08-30 12:26:03 | 56.84020 | 4.03717 | 58° | 24km/h | 18325m | 4.5m/s | -48.9°C | 0.4% | 74.9hPa | 2.5V | 18:12:15 | 01:46:08 | 00:00:00 | |
| DJ2DS-15 | 2026-08-30 12:25:59 | 56.84007 | 4.03676 | 63° | 26km/h | 18306m | 3.8m/s | -48.8°C | 3.4% | 75.1hPa | 2.5V | 00:00:00 | 01:46:04 | 00:00:00 | |
| DM0DOS-11 | 2026-08-30 12:25:54 | 56.83986 | 4.03600 | 69° | 26km/h | 18278m | 3.9m/s | 0°C | 0% | 0hPa | 2.5V | 08:30:00 | 01:45:58 | 00:00:00 | |
| DL1XH-west | 2026-08-30 12:25:52 | 56.83984 | 4.03589 | 70° | 24km/h | 18273m | 5m/s | -49°C | 0.3% | 75.5hPa | 2.5V | 18:12:15 | 01:45:57 | 00:00:00 | |
| DM0DOS-11 | 2026-08-30 12:25:43 | 56.83938 | 4.03456 | 57° | 26km/h | 18210m | 4.2m/s | 0°C | 0% | 0hPa | 2.6V | 08:30:00 | 01:45:43 | 00:00:00 | |
| DL1XH-west | 2026-08-30 12:25:42 | 56.83954 | 4.03496 | 55° | 27km/h | 18228m | 3.8m/s | -48.9°C | 0.4% | 76hPa | 2.6V | 18:12:15 | 01:45:47 | 00:00:00 | |
| DL1XH-west | 2026-08-30 12:25:31 | 56.83904 | 4.03395 | 39° | 27km/h | 18178m | 3.5m/s | -48.7°C | 0.2% | 76.6hPa | 2.6V | 18:12:15 | 01:45:36 | 00:00:00 | |
| DM0DOS-11 | 2026-08-30 12:25:29 | 56.83887 | 4.03369 | 47° | 29km/h | 18163m | 5.1m/s | 0°C | 0% | 0hPa | 2.5V | 08:30:00 | 01:45:33 | 00:00:00 | |
| DL1XH-west | 2026-08-30 12:25:21 | 56.83854 | 4.03312 | 37° | 24km/h | 18132m | 3.8m/s | -49°C | 0.3% | 77.1hPa | 2.5V | 18:12:15 | 01:45:26 | 00:00:00 | |
| DJ2DS-15 | 2026-08-30 12:25:19 | 56.83843 | 4.03299 | 27° | 33km/h | 18123m | 4.3m/s | -49.0°C | 3.4% | 77.2hPa | 2.6V | 00:00:00 | 01:45:24 | 00:00:00 | |
| DM0DOS-11 | 2026-08-30 12:25:17 | 56.83822 | 4.03280 | 27° | 33km/h | 18108m | 3.6m/s | 0°C | 0% | 0hPa | 2.6V | 00:00:00 | 01:45:21 | 00:00:00 | |
| DM0DOS-11 | 2026-08-30 12:25:12 | 56.83747 | 4.03209 | 24° | 31km/h | 18063m | 3.9m/s | 0°C | 0% | 0hPa | 2.6V | 00:00:00 | 01:45:11 | 00:00:00 | |
| DL1XH-west | 2026-08-30 12:25:10 | 56.83777 | 4.03235 | 29° | 33km/h | 18082m | 5.4m/s | -49.3°C | 0.4% | 77.8hPa | 2.6V | 18:12:15 | 01:45:15 | 00:00:00 | |
| DL1XH-west | 2026-08-30 12:24:59 | 56.83695 | 4.03170 | 23° | 31km/h | 18030m | 4.1m/s | -49.3°C | 0.4% | 78.4hPa | 2.6V | 18:12:15 | 01:45:04 | 00:00:00 | |
| DM0DOS-11 | 2026-08-30 12:24:59 | 56.83674 | 4.03153 | 23° | 31km/h | 18015m | 4.9m/s | 0°C | 0% | 0hPa | 2.5V | 00:00:00 | 01:45:01 | 00:00:00 | |
| DL1XH-west | 2026-08-30 12:24:49 | 56.83625 | 4.03117 | 22° | 29km/h | 17983m | 4m/s | -49°C | 0.4% | 78.9hPa | 2.5V | 18:12:15 | 01:44:54 | 00:00:00 | |
| DL1XH-west | 2026-08-30 12:24:39 | 56.83566 | 4.03056 | 36° | 29km/h | 17937m | 3.7m/s | -48.9°C | 0.3% | 79.5hPa | 2.6V | 18:12:15 | 01:44:44 | 00:00:00 | |
| DL1XH-west | 2026-08-30 12:24:28 | 56.83510 | 4.02975 | 42° | 24km/h | 17886m | 4.5m/s | -49°C | 0.3% | 80.1hPa | 2.6V | 18:12:15 | 01:44:33 | 00:00:00 | |
| DL1XH-west | 2026-08-30 12:24:17 | 56.83465 | 4.02860 | 50° | 29km/h | 17834m | 5.1m/s | -49.3°C | 0.3% | 80.7hPa | 2.5V | 18:12:15 | 01:44:22 | 00:00:00 | |
| DL1XH-west | 2026-08-30 12:24:06 | 56.83405 | 4.02721 | 57° | 35km/h | 17783m | 4.3m/s | -49.3°C | 0.5% | 81.4hPa | 2.5V | 18:12:15 | 01:44:11 | 00:00:00 | |
| DL1XH-west | 2026-08-30 12:23:56 | 56.83355 | 4.02581 | 55° | 33km/h | 17738m | 4.6m/s | -49.2°C | 0.3% | 82hPa | 2.6V | 18:12:15 | 01:44:01 | 00:00:00 | |
| DL1XH-west | 2026-08-30 12:23:45 | 56.83292 | 4.02438 | 54° | 44km/h | 17687m | 3.6m/s | -49.1°C | 0.3% | 82.6hPa | 2.5V | 18:12:15 | 01:43:50 | 00:00:00 | |
| DL1XH-west | 2026-08-30 12:23:35 | 56.83229 | 4.02319 | 41° | 38km/h | 17642m | 4.4m/s | -49°C | 0.3% | 83.2hPa | 2.5V | 18:12:15 | 01:43:40 | 00:00:00 | |
| DL1XH-west | 2026-08-30 12:23:24 | 56.83149 | 4.02197 | 32° | 33km/h | 17592m | 4.3m/s | -49°C | 0.3% | 83.8hPa | 2.6V | 18:12:15 | 01:43:29 | 00:00:00 | |
| DL1XH-west | 2026-08-30 12:23:13 | 56.83071 | 4.02081 | 37° | 38km/h | 17540m | 4.3m/s | -48.8°C | 0.3% | 84.4hPa | 2.6V | 18:12:15 | 01:43:18 | 00:00:00 | |
| DL1XH-west | 2026-08-30 12:23:02 | 56.82988 | 4.01955 | 42° | 40km/h | 17491m | 4.3m/s | -48.5°C | 0.3% | 85.1hPa | 2.5V | 18:12:15 | 01:43:07 | 00:00:00 | |
| DL1XH-west | 2026-08-30 12:22:51 | 56.82907 | 4.01809 | 45° | 44km/h | 17441m | 3.9m/s | -48.4°C | 0.3% | 85.7hPa | 2.5V | 18:12:15 | 01:42:56 | 00:00:00 | |
| DL1XH-west | 2026-08-30 12:22:41 | 56.82833 | 4.01668 | 48° | 46km/h | 17396m | 4.9m/s | -48.6°C | 0.3% | 86.3hPa | 2.6V | 18:12:15 | 01:42:46 | 00:00:00 | |
| DL1XH-west | 2026-08-30 12:22:30 | 56.82747 | 4.01474 | 51° | 49km/h | 17346m | 4m/s | -48.4°C | 0.2% | 87hPa | 2.5V | 18:12:15 | 01:42:35 | 00:00:00 | |
| DL1XH-west | 2026-08-30 12:22:20 | 56.82668 | 4.01307 | 48° | 47km/h | 17302m | 3.6m/s | -48.7°C | 0.3% | 87.6hPa | 2.6V | 18:12:15 | 01:42:25 | 00:00:00 | |
| DL1XH-west | 2026-08-30 12:22:10 | 56.82579 | 4.01139 | 43° | 46km/h | 17259m | 5.2m/s | -48.9°C | 0.4% | 88.2hPa | 2.5V | 18:12:15 | 01:42:15 | 00:00:00 | |
| DL1XH-west | 2026-08-30 12:22:00 | 56.82485 | 4.01012 | 36° | 47km/h | 17213m | 5.1m/s | -48.8°C | 0.3% | 88.8hPa | 2.5V | 18:12:15 | 01:42:05 | 00:00:00 | |
| DL1XH-west | 2026-08-30 12:21:49 | 56.82387 | 4.00894 | 31° | 42km/h | 17165m | 4.9m/s | -48.8°C | 0.3% | 89.4hPa | 2.5V | 18:12:15 | 01:41:54 | 00:00:00 | |
| DL1XH-west | 2026-08-30 12:21:38 | 56.82301 | 4.00783 | 34° | 40km/h | 17117m | 4.1m/s | -48.9°C | 0.3% | 90.1hPa | 2.5V | 18:12:15 | 01:41:43 | 00:00:00 | |
| DL1XH-west | 2026-08-30 12:21:27 | 56.82205 | 4.00684 | 34° | 40km/h | 17068m | 4.7m/s | -48.9°C | 0.3% | 90.7hPa | 2.6V | 18:12:15 | 01:41:32 | 00:00:00 | |
| DL1XH-west | 2026-08-30 12:21:16 | 56.82104 | 4.00591 | 21° | 42km/h | 17019m | 3.7m/s | -48.6°C | 0.3% | 91.5hPa | 2.6V | 18:12:15 | 01:41:21 | 00:00:00 | |
| DL1XH-west | 2026-08-30 12:21:05 | 56.82009 | 4.00510 | 25° | 37km/h | 16969m | 4.9m/s | -48.5°C | 0.3% | 92.2hPa | 2.6V | 18:12:15 | 01:41:10 | 00:00:00 | |
| DL1XH-west | 2026-08-30 12:20:54 | 56.81925 | 4.00430 | 35° | 35km/h | 16919m | 3.5m/s | -48.3°C | 0.3% | 92.9hPa | 2.6V | 18:12:15 | 01:40:59 | 00:00:00 | |
| DL1XH-west | 2026-08-30 12:20:43 | 56.81856 | 4.00358 | 35° | 26km/h | 16869m | 4.4m/s | -48.6°C | 0.3% | 93.5hPa | 2.5V | 18:12:15 | 01:40:48 | 00:00:00 | |
| DL1XH-west | 2026-08-30 12:20:33 | 56.81795 | 4.00274 | 49° | 27km/h | 16823m | 3.8m/s | -49.2°C | 0.3% | 94.2hPa | 2.5V | 18:12:15 | 01:40:38 | 00:00:00 | |
| DL1XH-west | 2026-08-30 12:20:22 | 56.81731 | 4.00156 | 41° | 37km/h | 16773m | 5.1m/s | -49.3°C | 0.3% | 95hPa | 2.5V | 18:12:15 | 01:40:27 | 00:00:00 | |
| DL1XH-west | 2026-08-30 12:20:11 | 56.81646 | 4.00039 | 38° | 37km/h | 16723m | 4.9m/s | -49.6°C | 0.4% | 95.7hPa | 2.6V | 18:12:15 | 01:40:16 | 00:00:00 | |
| DL1XH-west | 2026-08-30 12:20:01 | 56.81576 | 3.99926 | 40° | 40km/h | 16678m | 5.2m/s | -49.6°C | 0.4% | 96.4hPa | 2.5V | 18:12:15 | 01:40:06 | 00:00:00 | |
| DL1XH-west | 2026-08-30 12:19:50 | 56.81503 | 3.99810 | 42° | 35km/h | 16628m | 4.4m/s | -49.8°C | 0.5% | 97.1hPa | 2.5V | 18:12:15 | 01:39:55 | 00:00:00 | |
| DL1XH-west | 2026-08-30 12:19:39 | 56.81442 | 3.99662 | 65° | 35km/h | 16578m | 5.3m/s | -49.9°C | 0.4% | 97.8hPa | 2.6V | 18:12:15 | 01:39:44 | 00:00:00 | |
| DL1XH-west | 2026-08-30 12:19:28 | 56.81391 | 3.99487 | 60° | 51km/h | 16527m | 4.3m/s | -49.6°C | 0.4% | 98.6hPa | 2.6V | 18:12:15 | 01:39:33 | 00:00:00 | |
| DL1XH-west | 2026-08-30 12:19:18 | 56.81333 | 3.99283 | 68° | 46km/h | 16477m | 4.4m/s | -49.1°C | 0.3% | 99.4hPa | 2.6V | 18:12:15 | 01:39:22 | 00:00:00 | |
| DL1XH-west | 2026-08-30 12:19:07 | 56.81275 | 3.99075 | 65° | 47km/h | 16426m | 4.8m/s | -48.8°C | 0.4% | 100.1hPa | 2.6V | 18:12:15 | 01:39:11 | 00:00:00 | |
| DL1XH-west | 2026-08-30 12:18:56 | 56.81206 | 3.98819 | 64° | 46km/h | 16367m | 3.7m/s | -48.9°C | 0.3% | 101.1hPa | 2.6V | 18:12:15 | 01:38:58 | 00:00:00 | |
| DL1XH-west | 2026-08-30 12:18:43 | 56.81129 | 3.98563 | 60° | 58km/h | 16316m | 4.9m/s | -49°C | 0.4% | 101.8hPa | 2.6V | 18:12:15 | 01:38:47 | 00:00:00 | |
| DL1XH-west | 2026-08-30 12:18:32 | 56.81051 | 3.98339 | 56° | 62km/h | 16272m | 5.2m/s | -49°C | 0.4% | 102.5hPa | 2.5V | 18:12:15 | 01:38:37 | 00:00:00 | |
| DL1XH-west | 2026-08-30 12:18:22 | 56.80961 | 3.98108 | 50° | 57km/h | 16223m | 3.9m/s | -48.9°C | 0.4% | 103.3hPa | 2.6V | 18:12:15 | 01:38:26 | 00:00:00 | |
| DL1XH-west | 2026-08-30 12:18:11 | 56.80863 | 3.97899 | 48° | 53km/h | 16173m | 4.2m/s | -48.5°C | 0.4% | 104.1hPa | 2.6V | 18:12:15 | 01:38:15 | 00:00:00 | |
| DL1XH-west | 2026-08-30 12:18:00 | 56.80767 | 3.97722 | 45° | 49km/h | 16124m | 4.6m/s | -48°C | 0.3% | 104.9hPa | 2.5V | 18:12:15 | 01:38:04 | 00:00:00 | |
| DL1XH-west | 2026-08-30 12:17:49 | 56.80673 | 3.97560 | 41° | 44km/h | 16073m | 5.2m/s | -48°C | 0.3% | 105.7hPa | 2.5V | 18:12:15 | 01:37:53 | 00:00:00 | |
| DL1XH-west | 2026-08-30 12:17:38 | 56.80574 | 3.97404 | 37° | 51km/h | 16023m | 5.1m/s | -47.9°C | 0.2% | 106.5hPa | 2.6V | 18:12:15 | 01:37:42 | 00:00:00 | |
| DL1XH-west | 2026-08-30 12:17:27 | 56.80472 | 3.97267 | 39° | 53km/h | 15979m | 4.7m/s | -48°C | 0.4% | 107.2hPa | 2.5V | 18:12:15 | 01:37:32 | 00:00:00 | |
| DL1XH-west | 2026-08-30 12:17:17 | 56.80363 | 3.97133 | 32° | 46km/h | 15929m | 4.7m/s | -48.1°C | 0.3% | 108hPa | 2.6V | 18:12:15 | 01:37:21 | 00:00:00 | |
| DL1XH-west | 2026-08-30 12:17:06 | 56.80267 | 3.97008 | 47° | 47km/h | 15885m | 3.7m/s | -48.2°C | 0.3% | 108.8hPa | 2.7V | 18:12:15 | 01:37:11 | 00:00:00 | |
| DL1XH-west | 2026-08-30 12:16:56 | 56.80173 | 3.96875 | 40° | 49km/h | 15842m | 3.5m/s | -48.5°C | 0.3% | 109.5hPa | 2.5V | 18:12:15 | 01:37:01 | 00:00:00 | |
| DL1XH-west | 2026-08-30 12:16:46 | 56.80063 | 3.96725 | 33° | 49km/h | 15797m | 5.2m/s | -48.6°C | 0.3% | 110.3hPa | 2.7V | 18:12:15 | 01:36:50 | 00:00:00 | |
| DL1XH-west | 2026-08-30 12:16:34 | 56.79949 | 3.96594 | 30° | 49km/h | 15751m | 4m/s | -49.1°C | 0.5% | 111hPa | 2.6V | 18:12:15 | 01:36:39 | 00:00:00 | |
| DL1XH-west | 2026-08-30 12:16:24 | 56.79850 | 3.96450 | 36° | 53km/h | 15708m | 4.3m/s | -49.1°C | 0.4% | 111.8hPa | 2.6V | 18:12:15 | 01:36:29 | 00:00:00 | |
| DL1XH-west | 2026-08-30 12:16:14 | 56.79741 | 3.96322 | 28° | 47km/h | 15663m | 4.2m/s | -49.4°C | 0.6% | 112.5hPa | 2.6V | 18:12:15 | 01:36:19 | 00:00:00 | |
| DL1XH-west | 2026-08-30 12:16:03 | 56.79628 | 3.96201 | 33° | 44km/h | 15617m | 4.8m/s | -49.2°C | 0.5% | 113.4hPa | 2.7V | 18:12:15 | 01:36:08 | 00:00:00 | |
| DL1XH-west | 2026-08-30 12:15:53 | 56.79534 | 3.96092 | 34° | 38km/h | 15567m | 4.6m/s | -49°C | 0.4% | 114.2hPa | 2.7V | 18:12:15 | 01:35:57 | 00:00:00 | |
| DL1XH-west | 2026-08-30 12:15:43 | 56.79462 | 3.95990 | 44° | 35km/h | 15522m | 3.6m/s | -48.7°C | 0.5% | 115hPa | 2.6V | 18:12:15 | 01:35:47 | 00:00:00 | |
| DL1XH-west | 2026-08-30 12:15:33 | 56.79394 | 3.95875 | 46° | 37km/h | 15471m | 4.8m/s | -48.6°C | 0.4% | 115.9hPa | 2.7V | 18:12:15 | 01:35:36 | 00:00:00 | |
| DL1XH-west | 2026-08-30 12:15:21 | 56.79338 | 3.95752 | 57° | 31km/h | 15427m | 4.2m/s | -48.5°C | 0.4% | 116.7hPa | 2.6V | 18:12:15 | 01:35:26 | 00:00:00 | |
| DL1XH-west | 2026-08-30 12:15:10 | 56.79278 | 3.95577 | 63° | 42km/h | 15375m | 4.5m/s | -48.2°C | 0.4% | 117.6hPa | 2.6V | 18:12:15 | 01:35:14 | 00:00:00 | |
| DL1XH-west | 2026-08-30 12:14:59 | 56.79229 | 3.95386 | 67° | 44km/h | 15325m | 4.7m/s | -48.3°C | 0.5% | 118.5hPa | 2.6V | 18:12:15 | 01:35:03 | 00:00:00 | |
| DL1XH-west | 2026-08-30 12:14:48 | 56.79169 | 3.95159 | 65° | 55km/h | 15276m | 5.1m/s | -48.4°C | 0.5% | 119.4hPa | 2.6V | 18:12:15 | 01:34:52 | 00:00:00 | |
| DL1XH-west | 2026-08-30 12:14:37 | 56.79091 | 3.94912 | 58° | 57km/h | 15228m | 3.9m/s | -48.4°C | 0.6% | 120.2hPa | 2.5V | 18:12:15 | 01:34:41 | 00:00:00 | |
| DL1XH-west | 2026-08-30 12:14:26 | 56.79005 | 3.94699 | 50° | 60km/h | 15187m | 5m/s | -48.7°C | 0.6% | 121hPa | 2.7V | 18:12:15 | 01:34:31 | 00:00:00 | |
| DL1XH-west | 2026-08-30 12:14:16 | 56.78887 | 3.94459 | 47° | 71km/h | 15142m | 3.5m/s | -48.8°C | 0.6% | 121.8hPa | 2.5V | 18:12:15 | 01:34:20 | 00:00:00 | |
| DL1XH-west | 2026-08-30 12:14:04 | 56.78755 | 3.94220 | 40° | 68km/h | 15099m | 4.7m/s | -49.2°C | 0.7% | 122.6hPa | 2.6V | 18:12:15 | 01:34:09 | 00:00:00 | |
| DL1XH-west | 2026-08-30 12:13:54 | 56.78631 | 3.94042 | 35° | 60km/h | 15058m | 2.9m/s | -49°C | 0.7% | 123.4hPa | 2.6V | 18:12:15 | 01:33:59 | 00:00:00 | |
| DL1XH-west | 2026-08-30 12:13:44 | 56.78507 | 3.93892 | 30° | 58km/h | 15017m | 3.6m/s | -48.9°C | 0.7% | 124.2hPa | 2.7V | 18:12:15 | 01:33:49 | 00:00:00 | |
| DL1XH-west | 2026-08-30 12:13:33 | 56.78370 | 3.93756 | 25° | 53km/h | 14971m | 3.3m/s | -48.9°C | 0.5% | 125.1hPa | 2.7V | 18:12:15 | 01:33:38 | 00:00:00 | |
| DL1XH-west | 2026-08-30 12:13:23 | 56.78233 | 3.93633 | 22° | 57km/h | 14925m | 3.8m/s | -49.2°C | 0.6% | 125.9hPa | 2.6V | 18:12:15 | 01:33:27 | 00:00:00 | |
| DL1XH-west | 2026-08-30 12:13:11 | 56.78095 | 3.93551 | 16° | 47km/h | 14877m | 4.5m/s | -49.1°C | 0.7% | 126.9hPa | 2.6V | 18:12:15 | 01:33:16 | 00:00:00 | |
| DL1XH-west | 2026-08-30 12:13:01 | 56.77970 | 3.93485 | 13° | 46km/h | 14826m | 5.1m/s | -48.7°C | 0.6% | 127.9hPa | 2.7V | 18:12:15 | 01:33:05 | 00:00:00 | |
| DL1XH-west | 2026-08-30 12:12:50 | 56.77852 | 3.93423 | 18° | 42km/h | 14778m | 4.6m/s | -48.4°C | 0.7% | 128.9hPa | 2.6V | 18:12:15 | 01:32:54 | 00:00:00 | |
| DL1XH-west | 2026-08-30 12:12:38 | 56.77746 | 3.93357 | 24° | 44km/h | 14725m | 5.3m/s | -48.1°C | 0.5% | 129.9hPa | 2.5V | 18:12:15 | 01:32:43 | 00:00:00 | |
| DL1XH-west | 2026-08-30 12:12:28 | 56.77636 | 3.93258 | 33° | 40km/h | 14664m | 4.4m/s | -47.9°C | 0.5% | 131.1hPa | 2.6V | 18:12:15 | 01:32:31 | 00:00:00 | |
| DL1XH-west | 2026-08-30 12:12:16 | 56.77556 | 3.93148 | 33° | 38km/h | 14613m | 4m/s | -47.6°C | 0.4% | 132.1hPa | 2.6V | 18:12:15 | 01:32:20 | 00:00:00 | |
| DL1XH-west | 2026-08-30 12:12:06 | 56.77492 | 3.93025 | 49° | 37km/h | 14569m | 4.6m/s | -47.5°C | 0.4% | 133hPa | 2.6V | 18:12:15 | 01:32:10 | 00:00:00 | |
| DL1XH-west | 2026-08-30 12:11:54 | 56.77419 | 3.92882 | 54° | 40km/h | 14523m | 3.4m/s | -47.6°C | 0.4% | 133.9hPa | 2.6V | 18:12:15 | 01:31:59 | 00:00:00 | |
| DL1XH-west | 2026-08-30 12:11:44 | 56.77351 | 3.92718 | 54° | 46km/h | 14482m | 4.3m/s | -47.7°C | 0.3% | 134.8hPa | 2.7V | 18:12:15 | 01:31:49 | 00:00:00 | |
| DL1XH-west | 2026-08-30 12:11:34 | 56.77272 | 3.92522 | 53° | 49km/h | 14435m | 3.8m/s | -47.7°C | 0.3% | 135.7hPa | 2.6V | 18:12:15 | 01:31:38 | 00:00:00 | |
| DL1XH-west | 2026-08-30 12:11:23 | 56.77198 | 3.92312 | 61° | 62km/h | 14395m | 4.8m/s | -47.7°C | 0.4% | 136.6hPa | 2.7V | 18:12:15 | 01:31:28 | 00:00:00 | |
| DL1XH-west | 2026-08-30 12:11:13 | 56.77115 | 3.92089 | 55° | 58km/h | 14354m | 4.4m/s | -47.4°C | 0.4% | 137.4hPa | 2.6V | 18:12:15 | 01:31:18 | 00:00:00 | |
| DL1XH-west | 2026-08-30 12:11:03 | 56.77033 | 3.91853 | 56° | 53km/h | 14307m | 3.9m/s | -47.6°C | 0.5% | 138.3hPa | 2.6V | 18:12:15 | 01:31:07 | 00:00:00 | |
| DL1XH-west | 2026-08-30 12:10:52 | 56.76946 | 3.91622 | 52° | 57km/h | 14263m | 3.2m/s | -47.3°C | 0.5% | 139.3hPa | 2.6V | 18:12:15 | 01:30:56 | 00:00:00 | |
| DL1XH-west | 2026-08-30 12:10:40 | 56.76846 | 3.91390 | 51° | 58km/h | 14217m | 4.4m/s | -47.1°C | 0.4% | 140.3hPa | 2.6V | 18:12:15 | 01:30:45 | 00:00:00 | |
| DL1XH-west | 2026-08-30 12:10:30 | 56.76738 | 3.91169 | 49° | 58km/h | 14171m | 4m/s | -47°C | 0.4% | 141.3hPa | 2.6V | 18:12:15 | 01:30:34 | 00:00:00 | |
| DL1XH-west | 2026-08-30 12:10:20 | 56.76632 | 3.90963 | 45° | 57km/h | 14125m | 3.6m/s | -47°C | 0.4% | 142.3hPa | 2.6V | 18:12:15 | 01:30:23 | 00:00:00 | |
| DL1XH-west | 2026-08-30 12:10:10 | 56.76547 | 3.90816 | 39° | 58km/h | 14094m | 3.8m/s | -47.3°C | 0.3% | 142.9hPa | 2.7V | 18:12:15 | 01:30:15 | 00:00:00 | |
| DL1XH-west | 2026-08-30 12:10:00 | 56.76411 | 3.90643 | 36° | 62km/h | 14045m | 4m/s | -47.2°C | 0.4% | 144hPa | 2.7V | 18:12:15 | 01:30:04 | 00:00:00 | |
| DL1XH-west | 2026-08-30 12:09:49 | 56.76280 | 3.90475 | 40° | 66km/h | 14003m | 3.5m/s | -47.6°C | 0.5% | 144.9hPa | 2.6V | 18:12:15 | 01:29:54 | 00:00:00 | |
| DL1XH-west | 2026-08-30 12:09:39 | 56.76125 | 3.90242 | 39° | 73km/h | 13956m | 3.2m/s | -47.8°C | 0.4% | 145.9hPa | 2.6V | 18:12:15 | 01:29:43 | 00:00:00 | |
| DL1XH-west | 2026-08-30 12:09:28 | 56.75974 | 3.90036 | 36° | 66km/h | 13912m | 3.6m/s | -47.7°C | 0.3% | 146.9hPa | 2.6V | 18:12:15 | 01:29:32 | 00:00:00 | |
| DL1XH-west | 2026-08-30 12:09:18 | 56.75855 | 3.89894 | 32° | 60km/h | 13873m | 4.6m/s | -47.6°C | 0.5% | 147.8hPa | 2.7V | 18:12:15 | 01:29:23 | 00:00:00 | |
| DL1XH-west | 2026-08-30 12:09:08 | 56.75735 | 3.89740 | 33° | 58km/h | 13831m | 3.7m/s | -47.6°C | 0.4% | 148.7hPa | 2.7V | 18:12:15 | 01:29:13 | 00:00:00 | |
| DL1XH-west | 2026-08-30 12:08:57 | 56.75607 | 3.89568 | 39° | 55km/h | 13785m | 4m/s | -47.7°C | 0.8% | 149.8hPa | 2.7V | 18:12:15 | 01:29:02 | 00:00:00 | |
| DL1XH-west | 2026-08-30 12:08:47 | 56.75490 | 3.89380 | 45° | 58km/h | 13738m | 4.4m/s | -47.4°C | 0.5% | 150.9hPa | 2.7V | 18:12:15 | 01:28:51 | 00:00:00 | |
| DL1XH-west | 2026-08-30 12:08:35 | 56.75370 | 3.89188 | 41° | 57km/h | 13692m | 5.3m/s | -47.2°C | 0.4% | 151.9hPa | 2.7V | 18:12:15 | 01:28:40 | 00:00:00 | |
| DL1XH-west | 2026-08-30 12:08:25 | 56.75254 | 3.89027 | 35° | 58km/h | 13647m | 4.1m/s | -47.2°C | 0.8% | 152.9hPa | 2.7V | 18:12:15 | 01:28:30 | 00:00:00 | |
| DL1XH-west | 2026-08-30 12:08:14 | 56.75122 | 3.88863 | 32° | 57km/h | 13600m | 5.2m/s | -47.1°C | 0.7% | 154hPa | 2.7V | 18:12:15 | 01:28:19 | 00:00:00 | |
| DL1XH-west | 2026-08-30 12:08:03 | 56.74981 | 3.88702 | 33° | 58km/h | 13554m | 4.7m/s | -47.1°C | 0.6% | 155.1hPa | 2.7V | 18:12:15 | 01:28:08 | 00:00:00 | |
| DL1XH-west | 2026-08-30 12:07:52 | 56.74842 | 3.88558 | 26° | 58km/h | 13507m | 4.7m/s | -47.2°C | 0.7% | 156.2hPa | 2.7V | 18:12:15 | 01:27:57 | 00:00:00 | |
| DL1XH-west | 2026-08-30 12:07:42 | 56.74706 | 3.88442 | 30° | 58km/h | 13464m | 3.4m/s | -47.1°C | 0.5% | 157.3hPa | 2.6V | 18:12:15 | 01:27:47 | 00:00:00 | |
| DL1XH-west | 2026-08-30 12:07:32 | 56.74575 | 3.88315 | 30° | 57km/h | 13422m | 4.6m/s | -47.3°C | 0% | 158.2hPa | 2.6V | 18:12:15 | 01:27:37 | 00:00:00 | |
| DL1XH-west | 2026-08-30 12:07:22 | 56.74436 | 3.88176 | 26° | 55km/h | 13376m | 4.1m/s | 0°C | 0% | 159.4hPa | 2.6V | 18:12:15 | 01:27:26 | 00:00:00 | |
| DL1XH-west | 2026-08-30 12:07:10 | 56.74316 | 3.88060 | 31° | 47km/h | 13327m | 4.2m/s | 0°C | 0% | 0hPa | 2.6V | 18:12:15 | 01:27:15 | 00:00:00 | |
| DL1XH-west | 2026-08-30 12:07:00 | 56.74215 | 3.87938 | 39° | 47km/h | 13285m | 4m/s | 0°C | 0% | 0hPa | 2.6V | 18:12:15 | 01:27:05 | 00:00:00 | |
| DL1XH-west | 2026-08-30 12:06:49 | 56.74115 | 3.87778 | 43° | 51km/h | 13238m | 4.7m/s | 0°C | 0% | 0hPa | 2.6V | 18:12:15 | 01:26:54 | 00:00:00 | |
| DL1XH-west | 2026-08-30 12:06:36 | 56.73985 | 3.87547 | 47° | 55km/h | 13182m | 3.4m/s | 0°C | 0% | 0hPa | 2.7V | 18:12:15 | 01:26:40 | 00:00:00 | |
| DJ2DS-15 | 2026-08-30 12:06:18 | 56.73811 | 3.87222 | 43° | 62km/h | 13113m | 4.3m/s | -47.2°C | 3.7% | 165.8hPa | 2.7V | 00:00:00 | 01:26:23 | 00:00:00 | |
| DJ2DS-15 | 2026-08-30 12:06:02 | 56.73607 | 3.86907 | 43° | 62km/h | 13042m | 4.0m/s | -47.5°C | 1.7% | 167.6hPa | 2.7V | 00:00:00 | 00:00:00 | 00:00:00 | |
| DJ2DS-15 | 2026-08-30 12:05:58 | 56.73572 | 3.86849 | 41° | 62km/h | 13031m | 3.2m/s | -47.4°C | 3.9% | 167.8hPa | 2.7V | 00:00:00 | 01:26:03 | 00:00:00 | |
| DJ2DS-15 | 2026-08-30 12:05:38 | 56.73317 | 3.86530 | 32° | 53km/h | 12949m | 5.5m/s | -47.2°C | 3.3% | 170.0hPa | 2.7V | 00:00:00 | 01:25:43 | 08:30:00 | |
| DL1XH-west | 2026-08-30 12:05:11 | 56.73030 | 3.86154 | 39° | 42km/h | 12832m | 3.3m/s | 0°C | 0% | 0hPa | 2.6V | 18:12:15 | 01:25:15 | 00:00:00 | |
| DL1XH-west | 2026-08-30 12:05:01 | 56.72942 | 3.86023 | 41° | 44km/h | 12792m | 3.9m/s | 0°C | 0% | 0hPa | 2.7V | 18:12:15 | 01:25:05 | 00:00:00 | |
| DL1XH-west | 2026-08-30 12:04:50 | 56.72853 | 3.85889 | 38° | 42km/h | 12745m | 5.5m/s | 0°C | 0% | 0hPa | 2.7V | 18:12:15 | 01:24:54 | 00:00:00 | |
| DL1XH-west | 2026-08-30 12:04:39 | 56.72773 | 3.85728 | 46° | 46km/h | 12694m | 3.6m/s | 0°C | 0% | 0hPa | 2.7V | 18:12:15 | 01:24:43 | 00:00:00 | |
| DL1XH-west | 2026-08-30 12:04:29 | 56.72688 | 3.85554 | 48° | 51km/h | 12651m | 4.2m/s | 0°C | 0% | 0hPa | 2.7V | 18:12:15 | 01:24:33 | 00:00:00 | |
| DJ2DS-15 | 2026-08-30 12:04:18 | 56.72594 | 3.85387 | 45° | 55km/h | 12607m | 4.5m/s | -46.7°C | 3.6% | 178.8hPa | 2.7V | 00:00:00 | 01:24:23 | 00:00:00 | |
| DJ2DS-15 | 2026-08-30 12:03:58 | 56.72401 | 3.85039 | 45° | 53km/h | 12523m | 3.6m/s | -46.6°C | 3.8% | 181.3hPa | 2.7V | 00:00:00 | 01:24:03 | 00:00:00 | |
| DJ2DS-15 | 2026-08-30 12:03:38 | 56.72202 | 3.84664 | 47° | 53km/h | 12431m | 4.2m/s | -46.7°C | 1.7% | 183.8hPa | 2.7V | 00:00:00 | 00:00:00 | 00:00:00 | |
| DJ2DS-15 | 2026-08-30 12:03:18 | 56.72006 | 3.84306 | 46° | 55km/h | 12347m | 4.0m/s | -46.8°C | 3.7% | 186.2hPa | 2.7V | 00:00:00 | 01:23:23 | 00:00:00 | |
| DJ2DS-15 | 2026-08-30 12:02:58 | 56.71812 | 3.83951 | 43° | 53km/h | 12260m | 3.7m/s | -46.9°C | 3.8% | 188.7hPa | 2.7V | 00:00:00 | 01:23:03 | 00:00:00 | |
| DJ2DS-15 | 2026-08-30 12:02:38 | 56.71625 | 3.83607 | 50° | 57km/h | 12174m | 4.3m/s | -46.8°C | 3.8% | 191.1hPa | 2.7V | 00:00:00 | 01:22:43 | 08:30:00 | |
| DJ2DS-15 | 2026-08-30 12:02:18 | 56.71432 | 3.83220 | 48° | 64km/h | 12090m | 3.6m/s | -47.1°C | 3.8% | 193.6hPa | 2.7V | 00:00:00 | 01:22:23 | 00:00:00 | |
| DJ2DS-15 | 2026-08-30 12:01:49 | 56.71119 | 3.82539 | 51° | 73km/h | 11969m | 3.7m/s | -47.6°C | 1.9% | 197.2hPa | 2.7V | 00:00:00 | 00:00:00 | 00:00:00 | |
| DJ2DS-15 | 2026-08-30 12:01:38 | 56.70981 | 3.82254 | 50° | 71km/h | 11925m | 3.4m/s | -47.6°C | 3.9% | 198.5hPa | 2.7V | 00:00:00 | 01:21:43 | 00:00:00 | |
| DJ2DS-15 | 2026-08-30 12:01:18 | 56.70743 | 3.81754 | 47° | 75km/h | 11847m | 3.3m/s | -47.8°C | 4.0% | 200.8hPa | 2.6V | 00:00:00 | 01:21:23 | 00:00:00 | |
| DJ2DS-15 | 2026-08-30 12:01:13 | 56.70673 | 3.81632 | 42° | 77km/h | 11828m | 4.6m/s | -48.1°C | 2.0% | 201.5hPa | 2.6V | 00:00:00 | 00:00:00 | 00:00:00 | |
| DJ2DS-15 | 2026-08-30 12:00:58 | 56.70468 | 3.81288 | 41° | 68km/h | 11770m | 3.5m/s | -48.3°C | 4.1% | 203.2hPa | 2.6V | 00:00:00 | 01:21:03 | 00:00:00 | |
| DJ2DS-15 | 2026-08-30 12:00:38 | 56.70192 | 3.80932 | 34° | 64km/h | 11691m | 4.4m/s | -48.2°C | 4.4% | 205.7hPa | 2.6V | 00:00:00 | 01:20:43 | 00:00:00 | |
| DJ2DS-15 | 2026-08-30 12:00:18 | 56.69945 | 3.80561 | 44° | 66km/h | 11606m | 5.1m/s | -48.0°C | 4.9% | 208.4hPa | 2.7V | 00:00:00 | 01:20:23 | 00:00:00 | |
| DJ2DS-15 | 2026-08-30 12:00:01 | 56.69760 | 3.80187 | 52° | 66km/h | 11535m | 3.7m/s | -48.6°C | 4.4% | 210.7hPa | 2.7V | 00:00:00 | 00:00:00 | 00:00:00 | |
| DJ2DS-15 | 2026-08-30 11:59:58 | 56.69729 | 3.80111 | 56° | 69km/h | 11523m | 4.5m/s | -48.9°C | 7.9% | 211.1hPa | 2.7V | 00:00:00 | 01:20:03 | 00:00:00 | |
| DJ2DS-15 | 2026-08-30 11:59:25 | 56.69366 | 3.79248 | 50° | 66km/h | 11386m | 4.8m/s | -50.3°C | 11.9% | 215.4hPa | 2.7V | 00:00:00 | 01:19:30 | 08:30:00 | |
| DJ2DS-15 | 2026-08-30 11:59:05 | 56.69154 | 3.78781 | 51° | 73km/h | 11304m | 4.3m/s | -50.2°C | 12.4% | 218.3hPa | 0V | 00:00:00 | 01:19:10 | 00:00:00 | |
| DJ2DS-15 | 2026-08-30 11:58:49 | 56.68965 | 3.78366 | 48° | 75km/h | 11240m | 4.5m/s | -50.6°C | 11.2% | 220.5hPa | 0V | 00:00:00 | 00:00:00 | 00:00:00 | |
| DJ2DS-15 | 2026-08-30 11:58:45 | 56.68916 | 3.78261 | 51° | 80km/h | 11223m | 4.8m/s | 0°C | 0% | 0hPa | 0V | 00:00:00 | 01:18:50 | 00:00:00 | |
| DJ2DS-15 | 2026-08-30 11:58:25 | 56.68651 | 3.77703 | 48° | 80km/h | 11144m | 3.9m/s | 0°C | 0% | 0hPa | 0V | 00:00:00 | 01:18:30 | 00:00:00 | |
| DJ2DS-15 | 2026-08-30 11:58:13 | 56.68462 | 3.77369 | 41° | 77km/h | 11091m | 4.4m/s | -52.0°C | 16.3% | 225.6hPa | 0V | 00:00:00 | 00:00:00 | 00:00:00 | |
| DJ2DS-15 | 2026-08-30 11:58:05 | 56.68353 | 3.77210 | 37° | 77km/h | 11064m | 3.2m/s | 0°C | 0% | 0hPa | 0V | 00:00:00 | 01:18:10 | 00:00:00 | |
| DJ2DS-15 | 2026-08-30 11:57:45 | 56.68033 | 3.76816 | 34° | 68km/h | 10986m | 4.4m/s | 0°C | 0% | 0hPa | 0V | 00:00:00 | 01:17:50 | 00:00:00 | |
| DJ2DS-15 | 2026-08-30 11:57:25 | 56.67753 | 3.76454 | 37° | 66km/h | 10906m | 4.7m/s | 0°C | 0% | 0hPa | 0V | 00:00:00 | 01:17:30 | 00:00:00 | |
| DJ2DS-15 | 2026-08-30 11:56:56 | 56.67388 | 3.75896 | 43° | 60km/h | 10791m | 3.5m/s | 0°C | 0% | 0hPa | 0V | 00:00:00 | 01:17:01 | 00:00:00 | |
| DJ2DS-15 | 2026-08-30 11:56:35 | 56.67139 | 3.75527 | 41° | 60km/h | 10710m | 4.7m/s | 0°C | 0% | 0hPa | 0V | 00:00:00 | 01:16:40 | 00:00:00 | |
| DJ2DS-15 | 2026-08-30 11:56:15 | 56.66913 | 3.75139 | 46° | 62km/h | 10629m | 3.5m/s | 0°C | 0% | 0hPa | 0V | 00:00:00 | 01:16:20 | 00:00:00 |